<?xml version="1.0" encoding="UTF-8" standalone="no" ?>
<gpx xmlns="http://www.topografix.com/GPX/1/1" xmlns:xsi="http://www.w3.org/2001/XMLSchema-instance" xsi:schemaLocation="http://www.topografix.com/GPX/1/1 http://www.topografix.com/GPX/1/1/gpx.xsd" version="1.1" creator="VisuGPX - https://www.visugpx.com">
  <metadata>
    <name>Pont-du-Navoy - Roche du Midi - Point de vue de l'Heute - Col de la Vermillère</name>
    <desc><![CDATA[Randonnée pédestre effectuée le 25 août 2021;]]></desc>
  </metadata>
  <trk>
    <name><![CDATA[25 août 2021 à 08:56:35]]></name>
    <extensions>
      <line xmlns="http://www.topografix.com/GPX/gpx_style/0/2">
        <color>0000FF</color>
        <width>4</width>
      </line>
    </extensions>
    <trkseg>
      <trkpt lat="46.72475" lon="5.77822">
        <ele>483</ele>
        <time>2021-08-25T06:56:36Z</time>
      </trkpt>
      <trkpt lat="46.72475" lon="5.77823">
        <ele>483</ele>
        <time>2021-08-25T06:56:37Z</time>
      </trkpt>
      <trkpt lat="46.72473" lon="5.77828">
        <ele>482</ele>
        <time>2021-08-25T06:57:53Z</time>
      </trkpt>
      <trkpt lat="46.72481" lon="5.77831">
        <ele>481</ele>
        <time>2021-08-25T06:58:33Z</time>
      </trkpt>
      <trkpt lat="46.72485" lon="5.77828">
        <ele>482</ele>
        <time>2021-08-25T06:58:58Z</time>
      </trkpt>
      <trkpt lat="46.72487" lon="5.77836">
        <ele>482</ele>
        <time>2021-08-25T07:00:54Z</time>
      </trkpt>
      <trkpt lat="46.72496" lon="5.77838">
        <ele>481</ele>
        <time>2021-08-25T07:01:39Z</time>
      </trkpt>
      <trkpt lat="46.72516" lon="5.77849">
        <ele>480</ele>
        <time>2021-08-25T07:01:59Z</time>
      </trkpt>
      <trkpt lat="46.72522" lon="5.77854">
        <ele>480</ele>
        <time>2021-08-25T07:02:04Z</time>
      </trkpt>
      <trkpt lat="46.72524" lon="5.77861">
        <ele>480</ele>
        <time>2021-08-25T07:02:08Z</time>
      </trkpt>
      <trkpt lat="46.72554" lon="5.77893">
        <ele>479</ele>
        <time>2021-08-25T07:02:39Z</time>
      </trkpt>
      <trkpt lat="46.72582" lon="5.77932">
        <ele>477</ele>
        <time>2021-08-25T07:03:10Z</time>
      </trkpt>
      <trkpt lat="46.72616" lon="5.77965">
        <ele>476</ele>
        <time>2021-08-25T07:03:45Z</time>
      </trkpt>
      <trkpt lat="46.72632" lon="5.77978">
        <ele>476</ele>
        <time>2021-08-25T07:03:58Z</time>
      </trkpt>
      <trkpt lat="46.72636" lon="5.77984">
        <ele>476</ele>
        <time>2021-08-25T07:04:02Z</time>
      </trkpt>
      <trkpt lat="46.72662" lon="5.78028">
        <ele>475</ele>
        <time>2021-08-25T07:04:36Z</time>
      </trkpt>
      <trkpt lat="46.72671" lon="5.78043">
        <ele>475</ele>
        <time>2021-08-25T07:04:48Z</time>
      </trkpt>
      <trkpt lat="46.72674" lon="5.78051">
        <ele>474</ele>
        <time>2021-08-25T07:04:53Z</time>
      </trkpt>
      <trkpt lat="46.72681" lon="5.78066">
        <ele>474</ele>
        <time>2021-08-25T07:05:02Z</time>
      </trkpt>
      <trkpt lat="46.72685" lon="5.78074">
        <ele>474</ele>
        <time>2021-08-25T07:05:29Z</time>
      </trkpt>
      <trkpt lat="46.72699" lon="5.7807">
        <ele>474</ele>
        <time>2021-08-25T07:05:39Z</time>
      </trkpt>
      <trkpt lat="46.72704" lon="5.78068">
        <ele>475</ele>
        <time>2021-08-25T07:05:44Z</time>
      </trkpt>
      <trkpt lat="46.72722" lon="5.7807">
        <ele>477</ele>
        <time>2021-08-25T07:06:00Z</time>
      </trkpt>
      <trkpt lat="46.72741" lon="5.7808">
        <ele>478</ele>
        <time>2021-08-25T07:06:15Z</time>
      </trkpt>
      <trkpt lat="46.72746" lon="5.78083">
        <ele>479</ele>
        <time>2021-08-25T07:06:19Z</time>
      </trkpt>
      <trkpt lat="46.72757" lon="5.78092">
        <ele>479</ele>
        <time>2021-08-25T07:06:29Z</time>
      </trkpt>
      <trkpt lat="46.72762" lon="5.78096">
        <ele>479</ele>
        <time>2021-08-25T07:06:34Z</time>
      </trkpt>
      <trkpt lat="46.72767" lon="5.78102">
        <ele>479</ele>
        <time>2021-08-25T07:06:39Z</time>
      </trkpt>
      <trkpt lat="46.72773" lon="5.78104">
        <ele>480</ele>
        <time>2021-08-25T07:06:43Z</time>
      </trkpt>
      <trkpt lat="46.72785" lon="5.78104">
        <ele>480</ele>
        <time>2021-08-25T07:06:54Z</time>
      </trkpt>
      <trkpt lat="46.72802" lon="5.78093">
        <ele>481</ele>
        <time>2021-08-25T07:07:08Z</time>
      </trkpt>
      <trkpt lat="46.72831" lon="5.78055">
        <ele>483</ele>
        <time>2021-08-25T07:07:40Z</time>
      </trkpt>
      <trkpt lat="46.72834" lon="5.78047">
        <ele>483</ele>
        <time>2021-08-25T07:07:46Z</time>
      </trkpt>
      <trkpt lat="46.72838" lon="5.78038">
        <ele>483</ele>
        <time>2021-08-25T07:07:54Z</time>
      </trkpt>
      <trkpt lat="46.72846" lon="5.78036">
        <ele>483</ele>
        <time>2021-08-25T07:08:01Z</time>
      </trkpt>
      <trkpt lat="46.72852" lon="5.78039">
        <ele>483</ele>
        <time>2021-08-25T07:08:05Z</time>
      </trkpt>
      <trkpt lat="46.72857" lon="5.78041">
        <ele>484</ele>
        <time>2021-08-25T07:08:10Z</time>
      </trkpt>
      <trkpt lat="46.72864" lon="5.78046">
        <ele>483</ele>
        <time>2021-08-25T07:08:20Z</time>
      </trkpt>
      <trkpt lat="46.72905" lon="5.78057">
        <ele>484</ele>
        <time>2021-08-25T07:08:53Z</time>
      </trkpt>
      <trkpt lat="46.72911" lon="5.78059">
        <ele>484</ele>
        <time>2021-08-25T07:08:58Z</time>
      </trkpt>
      <trkpt lat="46.72946" lon="5.78073">
        <ele>484</ele>
        <time>2021-08-25T07:09:29Z</time>
      </trkpt>
      <trkpt lat="46.72952" lon="5.78073">
        <ele>484</ele>
        <time>2021-08-25T07:09:34Z</time>
      </trkpt>
      <trkpt lat="46.72957" lon="5.78076">
        <ele>484</ele>
        <time>2021-08-25T07:09:38Z</time>
      </trkpt>
      <trkpt lat="46.72962" lon="5.78079">
        <ele>486</ele>
        <time>2021-08-25T07:09:49Z</time>
      </trkpt>
      <trkpt lat="46.72968" lon="5.78083">
        <ele>485</ele>
        <time>2021-08-25T07:09:56Z</time>
      </trkpt>
      <trkpt lat="46.72974" lon="5.78083">
        <ele>485</ele>
        <time>2021-08-25T07:10:01Z</time>
      </trkpt>
      <trkpt lat="46.72979" lon="5.78087">
        <ele>485</ele>
        <time>2021-08-25T07:10:05Z</time>
      </trkpt>
      <trkpt lat="46.73017" lon="5.78109">
        <ele>486</ele>
        <time>2021-08-25T07:10:39Z</time>
      </trkpt>
      <trkpt lat="46.73022" lon="5.78114">
        <ele>487</ele>
        <time>2021-08-25T07:10:44Z</time>
      </trkpt>
      <trkpt lat="46.73058" lon="5.78129">
        <ele>488</ele>
        <time>2021-08-25T07:11:15Z</time>
      </trkpt>
      <trkpt lat="46.73069" lon="5.78136">
        <ele>488</ele>
        <time>2021-08-25T07:11:24Z</time>
      </trkpt>
      <trkpt lat="46.73106" lon="5.78167">
        <ele>489</ele>
        <time>2021-08-25T07:12:01Z</time>
      </trkpt>
      <trkpt lat="46.73125" lon="5.78189">
        <ele>490</ele>
        <time>2021-08-25T07:12:18Z</time>
      </trkpt>
      <trkpt lat="46.7315" lon="5.78203">
        <ele>491</ele>
        <time>2021-08-25T07:12:44Z</time>
      </trkpt>
      <trkpt lat="46.73157" lon="5.78207">
        <ele>490</ele>
        <time>2021-08-25T07:12:51Z</time>
      </trkpt>
      <trkpt lat="46.73165" lon="5.78214">
        <ele>491</ele>
        <time>2021-08-25T07:12:58Z</time>
      </trkpt>
      <trkpt lat="46.73193" lon="5.7824">
        <ele>492</ele>
        <time>2021-08-25T07:13:24Z</time>
      </trkpt>
      <trkpt lat="46.73197" lon="5.78246">
        <ele>492</ele>
        <time>2021-08-25T07:13:29Z</time>
      </trkpt>
      <trkpt lat="46.73201" lon="5.7825">
        <ele>492</ele>
        <time>2021-08-25T07:13:32Z</time>
      </trkpt>
      <trkpt lat="46.73206" lon="5.78256">
        <ele>492</ele>
        <time>2021-08-25T07:13:37Z</time>
      </trkpt>
      <trkpt lat="46.73214" lon="5.78268">
        <ele>492</ele>
        <time>2021-08-25T07:13:47Z</time>
      </trkpt>
      <trkpt lat="46.7323" lon="5.78281">
        <ele>492</ele>
        <time>2021-08-25T07:14:02Z</time>
      </trkpt>
      <trkpt lat="46.73235" lon="5.78283">
        <ele>493</ele>
        <time>2021-08-25T07:14:06Z</time>
      </trkpt>
      <trkpt lat="46.73245" lon="5.78295">
        <ele>493</ele>
        <time>2021-08-25T07:14:16Z</time>
      </trkpt>
      <trkpt lat="46.7325" lon="5.78298">
        <ele>493</ele>
        <time>2021-08-25T07:14:20Z</time>
      </trkpt>
      <trkpt lat="46.73258" lon="5.78311">
        <ele>493</ele>
        <time>2021-08-25T07:14:28Z</time>
      </trkpt>
      <trkpt lat="46.73263" lon="5.78315">
        <ele>493</ele>
        <time>2021-08-25T07:14:32Z</time>
      </trkpt>
      <trkpt lat="46.73268" lon="5.78319">
        <ele>493</ele>
        <time>2021-08-25T07:14:38Z</time>
      </trkpt>
      <trkpt lat="46.73301" lon="5.78355">
        <ele>493</ele>
        <time>2021-08-25T07:15:13Z</time>
      </trkpt>
      <trkpt lat="46.73307" lon="5.78361">
        <ele>493</ele>
        <time>2021-08-25T07:15:19Z</time>
      </trkpt>
      <trkpt lat="46.73314" lon="5.78367">
        <ele>493</ele>
        <time>2021-08-25T07:15:23Z</time>
      </trkpt>
      <trkpt lat="46.73326" lon="5.78372">
        <ele>494</ele>
        <time>2021-08-25T07:15:33Z</time>
      </trkpt>
      <trkpt lat="46.7333" lon="5.78377">
        <ele>494</ele>
        <time>2021-08-25T07:15:39Z</time>
      </trkpt>
      <trkpt lat="46.73358" lon="5.78398">
        <ele>494</ele>
        <time>2021-08-25T07:16:02Z</time>
      </trkpt>
      <trkpt lat="46.73362" lon="5.78403">
        <ele>494</ele>
        <time>2021-08-25T07:16:06Z</time>
      </trkpt>
      <trkpt lat="46.73368" lon="5.78405">
        <ele>495</ele>
        <time>2021-08-25T07:16:11Z</time>
      </trkpt>
      <trkpt lat="46.73373" lon="5.7841">
        <ele>495</ele>
        <time>2021-08-25T07:16:15Z</time>
      </trkpt>
      <trkpt lat="46.73385" lon="5.78419">
        <ele>495</ele>
        <time>2021-08-25T07:16:26Z</time>
      </trkpt>
      <trkpt lat="46.7339" lon="5.78427">
        <ele>495</ele>
        <time>2021-08-25T07:16:33Z</time>
      </trkpt>
      <trkpt lat="46.73398" lon="5.7843">
        <ele>495</ele>
        <time>2021-08-25T07:16:39Z</time>
      </trkpt>
      <trkpt lat="46.73403" lon="5.78436">
        <ele>495</ele>
        <time>2021-08-25T07:16:44Z</time>
      </trkpt>
      <trkpt lat="46.73411" lon="5.7844">
        <ele>495</ele>
        <time>2021-08-25T07:16:52Z</time>
      </trkpt>
      <trkpt lat="46.73447" lon="5.78466">
        <ele>496</ele>
        <time>2021-08-25T07:17:24Z</time>
      </trkpt>
      <trkpt lat="46.73452" lon="5.78473">
        <ele>496</ele>
        <time>2021-08-25T07:17:29Z</time>
      </trkpt>
      <trkpt lat="46.7349" lon="5.78496">
        <ele>496</ele>
        <time>2021-08-25T07:18:01Z</time>
      </trkpt>
      <trkpt lat="46.73503" lon="5.78503">
        <ele>497</ele>
        <time>2021-08-25T07:18:12Z</time>
      </trkpt>
      <trkpt lat="46.73521" lon="5.78521">
        <ele>497</ele>
        <time>2021-08-25T07:18:30Z</time>
      </trkpt>
      <trkpt lat="46.73527" lon="5.78528">
        <ele>497</ele>
        <time>2021-08-25T07:18:40Z</time>
      </trkpt>
      <trkpt lat="46.73532" lon="5.78532">
        <ele>497</ele>
        <time>2021-08-25T07:18:45Z</time>
      </trkpt>
      <trkpt lat="46.73563" lon="5.78567">
        <ele>497</ele>
        <time>2021-08-25T07:19:16Z</time>
      </trkpt>
      <trkpt lat="46.73572" lon="5.78575">
        <ele>497</ele>
        <time>2021-08-25T07:19:27Z</time>
      </trkpt>
      <trkpt lat="46.73575" lon="5.78584">
        <ele>497</ele>
        <time>2021-08-25T07:19:35Z</time>
      </trkpt>
      <trkpt lat="46.73593" lon="5.78606">
        <ele>497</ele>
        <time>2021-08-25T07:19:51Z</time>
      </trkpt>
      <trkpt lat="46.73597" lon="5.78614">
        <ele>497</ele>
        <time>2021-08-25T07:19:58Z</time>
      </trkpt>
      <trkpt lat="46.73623" lon="5.78629">
        <ele>497</ele>
        <time>2021-08-25T07:20:23Z</time>
      </trkpt>
      <trkpt lat="46.73629" lon="5.78637">
        <ele>497</ele>
        <time>2021-08-25T07:20:29Z</time>
      </trkpt>
      <trkpt lat="46.73643" lon="5.78666">
        <ele>497</ele>
        <time>2021-08-25T07:20:45Z</time>
      </trkpt>
      <trkpt lat="46.73648" lon="5.78676">
        <ele>497</ele>
        <time>2021-08-25T07:20:50Z</time>
      </trkpt>
      <trkpt lat="46.7366" lon="5.78696">
        <ele>497</ele>
        <time>2021-08-25T07:21:04Z</time>
      </trkpt>
      <trkpt lat="46.73671" lon="5.78706">
        <ele>497</ele>
        <time>2021-08-25T07:21:17Z</time>
      </trkpt>
      <trkpt lat="46.73674" lon="5.78714">
        <ele>497</ele>
        <time>2021-08-25T07:21:22Z</time>
      </trkpt>
      <trkpt lat="46.73684" lon="5.78726">
        <ele>497</ele>
        <time>2021-08-25T07:21:32Z</time>
      </trkpt>
      <trkpt lat="46.7371" lon="5.78773">
        <ele>497</ele>
        <time>2021-08-25T07:22:07Z</time>
      </trkpt>
      <trkpt lat="46.73744" lon="5.78805">
        <ele>497</ele>
        <time>2021-08-25T07:22:46Z</time>
      </trkpt>
      <trkpt lat="46.73764" lon="5.78826">
        <ele>497</ele>
        <time>2021-08-25T07:23:03Z</time>
      </trkpt>
      <trkpt lat="46.73771" lon="5.78829">
        <ele>497</ele>
        <time>2021-08-25T07:23:08Z</time>
      </trkpt>
      <trkpt lat="46.73809" lon="5.78858">
        <ele>497</ele>
        <time>2021-08-25T07:23:43Z</time>
      </trkpt>
      <trkpt lat="46.73826" lon="5.78869">
        <ele>497</ele>
        <time>2021-08-25T07:23:57Z</time>
      </trkpt>
      <trkpt lat="46.73831" lon="5.78871">
        <ele>496</ele>
        <time>2021-08-25T07:24:01Z</time>
      </trkpt>
      <trkpt lat="46.73852" lon="5.78882">
        <ele>497</ele>
        <time>2021-08-25T07:24:22Z</time>
      </trkpt>
      <trkpt lat="46.7386" lon="5.78887">
        <ele>497</ele>
        <time>2021-08-25T07:24:27Z</time>
      </trkpt>
      <trkpt lat="46.7389" lon="5.789">
        <ele>497</ele>
        <time>2021-08-25T07:24:50Z</time>
      </trkpt>
      <trkpt lat="46.73913" lon="5.78917">
        <ele>497</ele>
        <time>2021-08-25T07:25:13Z</time>
      </trkpt>
      <trkpt lat="46.73944" lon="5.7893">
        <ele>497</ele>
        <time>2021-08-25T07:25:35Z</time>
      </trkpt>
      <trkpt lat="46.73959" lon="5.78942">
        <ele>498</ele>
        <time>2021-08-25T07:25:50Z</time>
      </trkpt>
      <trkpt lat="46.7397" lon="5.78948">
        <ele>498</ele>
        <time>2021-08-25T07:26:01Z</time>
      </trkpt>
      <trkpt lat="46.73976" lon="5.78953">
        <ele>498</ele>
        <time>2021-08-25T07:26:07Z</time>
      </trkpt>
      <trkpt lat="46.73982" lon="5.78955">
        <ele>498</ele>
        <time>2021-08-25T07:26:11Z</time>
      </trkpt>
      <trkpt lat="46.73993" lon="5.78963">
        <ele>498</ele>
        <time>2021-08-25T07:26:19Z</time>
      </trkpt>
      <trkpt lat="46.73999" lon="5.78965">
        <ele>498</ele>
        <time>2021-08-25T07:26:23Z</time>
      </trkpt>
      <trkpt lat="46.74009" lon="5.78975">
        <ele>498</ele>
        <time>2021-08-25T07:26:33Z</time>
      </trkpt>
      <trkpt lat="46.74024" lon="5.7899">
        <ele>498</ele>
        <time>2021-08-25T07:26:46Z</time>
      </trkpt>
      <trkpt lat="46.74034" lon="5.78993">
        <ele>498</ele>
        <time>2021-08-25T07:26:55Z</time>
      </trkpt>
      <trkpt lat="46.74042" lon="5.78998">
        <ele>498</ele>
        <time>2021-08-25T07:26:59Z</time>
      </trkpt>
      <trkpt lat="46.74053" lon="5.79001">
        <ele>498</ele>
        <time>2021-08-25T07:27:08Z</time>
      </trkpt>
      <trkpt lat="46.74058" lon="5.79005">
        <ele>498</ele>
        <time>2021-08-25T07:27:12Z</time>
      </trkpt>
      <trkpt lat="46.74077" lon="5.7901">
        <ele>498</ele>
        <time>2021-08-25T07:27:30Z</time>
      </trkpt>
      <trkpt lat="46.74088" lon="5.79018">
        <ele>499</ele>
        <time>2021-08-25T07:27:40Z</time>
      </trkpt>
      <trkpt lat="46.74107" lon="5.79026">
        <ele>499</ele>
        <time>2021-08-25T07:27:53Z</time>
      </trkpt>
      <trkpt lat="46.74117" lon="5.79033">
        <ele>499</ele>
        <time>2021-08-25T07:28:01Z</time>
      </trkpt>
      <trkpt lat="46.74123" lon="5.79034">
        <ele>499</ele>
        <time>2021-08-25T07:28:05Z</time>
      </trkpt>
      <trkpt lat="46.74161" lon="5.79058">
        <ele>499</ele>
        <time>2021-08-25T07:28:38Z</time>
      </trkpt>
      <trkpt lat="46.74187" lon="5.79073">
        <ele>499</ele>
        <time>2021-08-25T07:29:01Z</time>
      </trkpt>
      <trkpt lat="46.74199" lon="5.79078">
        <ele>499</ele>
        <time>2021-08-25T07:29:12Z</time>
      </trkpt>
      <trkpt lat="46.74215" lon="5.79092">
        <ele>499</ele>
        <time>2021-08-25T07:29:28Z</time>
      </trkpt>
      <trkpt lat="46.74234" lon="5.79097">
        <ele>499</ele>
        <time>2021-08-25T07:29:43Z</time>
      </trkpt>
      <trkpt lat="46.74239" lon="5.791">
        <ele>500</ele>
        <time>2021-08-25T07:29:55Z</time>
      </trkpt>
      <trkpt lat="46.74244" lon="5.79104">
        <ele>499</ele>
        <time>2021-08-25T07:30:01Z</time>
      </trkpt>
      <trkpt lat="46.74245" lon="5.79111">
        <ele>500</ele>
        <time>2021-08-25T07:30:33Z</time>
      </trkpt>
      <trkpt lat="46.74251" lon="5.7911">
        <ele>500</ele>
        <time>2021-08-25T07:31:30Z</time>
      </trkpt>
      <trkpt lat="46.74258" lon="5.79111">
        <ele>501</ele>
        <time>2021-08-25T07:34:49Z</time>
      </trkpt>
      <trkpt lat="46.74263" lon="5.79117">
        <ele>500</ele>
        <time>2021-08-25T07:34:55Z</time>
      </trkpt>
      <trkpt lat="46.74286" lon="5.79127">
        <ele>501</ele>
        <time>2021-08-25T07:35:20Z</time>
      </trkpt>
      <trkpt lat="46.74299" lon="5.79134">
        <ele>501</ele>
        <time>2021-08-25T07:35:30Z</time>
      </trkpt>
      <trkpt lat="46.74303" lon="5.79138">
        <ele>501</ele>
        <time>2021-08-25T07:35:34Z</time>
      </trkpt>
      <trkpt lat="46.74328" lon="5.79147">
        <ele>501</ele>
        <time>2021-08-25T07:36:11Z</time>
      </trkpt>
      <trkpt lat="46.74351" lon="5.79161">
        <ele>502</ele>
        <time>2021-08-25T07:36:37Z</time>
      </trkpt>
      <trkpt lat="46.74366" lon="5.79175">
        <ele>502</ele>
        <time>2021-08-25T07:36:54Z</time>
      </trkpt>
      <trkpt lat="46.74372" lon="5.79176">
        <ele>502</ele>
        <time>2021-08-25T07:36:59Z</time>
      </trkpt>
      <trkpt lat="46.74377" lon="5.79179">
        <ele>502</ele>
        <time>2021-08-25T07:37:05Z</time>
      </trkpt>
      <trkpt lat="46.74389" lon="5.79189">
        <ele>502</ele>
        <time>2021-08-25T07:37:16Z</time>
      </trkpt>
      <trkpt lat="46.74421" lon="5.79201">
        <ele>502</ele>
        <time>2021-08-25T07:37:46Z</time>
      </trkpt>
      <trkpt lat="46.74426" lon="5.79206">
        <ele>502</ele>
        <time>2021-08-25T07:37:50Z</time>
      </trkpt>
      <trkpt lat="46.74431" lon="5.79207">
        <ele>502</ele>
        <time>2021-08-25T07:37:56Z</time>
      </trkpt>
      <trkpt lat="46.74443" lon="5.79211">
        <ele>503</ele>
        <time>2021-08-25T07:38:06Z</time>
      </trkpt>
      <trkpt lat="46.74453" lon="5.7922">
        <ele>503</ele>
        <time>2021-08-25T07:38:16Z</time>
      </trkpt>
      <trkpt lat="46.74468" lon="5.79223">
        <ele>503</ele>
        <time>2021-08-25T07:38:33Z</time>
      </trkpt>
      <trkpt lat="46.74475" lon="5.7923">
        <ele>503</ele>
        <time>2021-08-25T07:38:42Z</time>
      </trkpt>
      <trkpt lat="46.74511" lon="5.79247">
        <ele>503</ele>
        <time>2021-08-25T07:39:14Z</time>
      </trkpt>
      <trkpt lat="46.74516" lon="5.7925">
        <ele>503</ele>
        <time>2021-08-25T07:39:18Z</time>
      </trkpt>
      <trkpt lat="46.74521" lon="5.79256">
        <ele>503</ele>
        <time>2021-08-25T07:39:22Z</time>
      </trkpt>
      <trkpt lat="46.74538" lon="5.79268">
        <ele>503</ele>
        <time>2021-08-25T07:39:36Z</time>
      </trkpt>
      <trkpt lat="46.74551" lon="5.7927">
        <ele>503</ele>
        <time>2021-08-25T07:39:46Z</time>
      </trkpt>
      <trkpt lat="46.74569" lon="5.79285">
        <ele>503</ele>
        <time>2021-08-25T07:40:02Z</time>
      </trkpt>
      <trkpt lat="46.74573" lon="5.79291">
        <ele>503</ele>
        <time>2021-08-25T07:40:06Z</time>
      </trkpt>
      <trkpt lat="46.746" lon="5.79308">
        <ele>502</ele>
        <time>2021-08-25T07:40:29Z</time>
      </trkpt>
      <trkpt lat="46.74637" lon="5.79319">
        <ele>502</ele>
        <time>2021-08-25T07:40:59Z</time>
      </trkpt>
      <trkpt lat="46.74643" lon="5.7932">
        <ele>502</ele>
        <time>2021-08-25T07:41:04Z</time>
      </trkpt>
      <trkpt lat="46.74649" lon="5.79324">
        <ele>503</ele>
        <time>2021-08-25T07:41:09Z</time>
      </trkpt>
      <trkpt lat="46.74654" lon="5.79328">
        <ele>502</ele>
        <time>2021-08-25T07:41:13Z</time>
      </trkpt>
      <trkpt lat="46.74672" lon="5.79338">
        <ele>503</ele>
        <time>2021-08-25T07:41:29Z</time>
      </trkpt>
      <trkpt lat="46.74677" lon="5.79338">
        <ele>503</ele>
        <time>2021-08-25T07:41:34Z</time>
      </trkpt>
      <trkpt lat="46.74683" lon="5.79343">
        <ele>503</ele>
        <time>2021-08-25T07:41:39Z</time>
      </trkpt>
      <trkpt lat="46.74725" lon="5.79359">
        <ele>503</ele>
        <time>2021-08-25T07:42:12Z</time>
      </trkpt>
      <trkpt lat="46.74737" lon="5.79361">
        <ele>503</ele>
        <time>2021-08-25T07:42:20Z</time>
      </trkpt>
      <trkpt lat="46.74742" lon="5.79361">
        <ele>503</ele>
        <time>2021-08-25T07:42:24Z</time>
      </trkpt>
      <trkpt lat="46.74753" lon="5.79366">
        <ele>503</ele>
        <time>2021-08-25T07:42:33Z</time>
      </trkpt>
      <trkpt lat="46.74764" lon="5.79373">
        <ele>503</ele>
        <time>2021-08-25T07:42:42Z</time>
      </trkpt>
      <trkpt lat="46.7477" lon="5.79374">
        <ele>502</ele>
        <time>2021-08-25T07:42:48Z</time>
      </trkpt>
      <trkpt lat="46.74788" lon="5.79379">
        <ele>502</ele>
        <time>2021-08-25T07:43:03Z</time>
      </trkpt>
      <trkpt lat="46.74794" lon="5.79383">
        <ele>502</ele>
        <time>2021-08-25T07:43:08Z</time>
      </trkpt>
      <trkpt lat="46.74818" lon="5.79388">
        <ele>502</ele>
        <time>2021-08-25T07:43:26Z</time>
      </trkpt>
      <trkpt lat="46.74825" lon="5.79393">
        <ele>502</ele>
        <time>2021-08-25T07:43:32Z</time>
      </trkpt>
      <trkpt lat="46.74829" lon="5.79398">
        <ele>502</ele>
        <time>2021-08-25T07:43:36Z</time>
      </trkpt>
      <trkpt lat="46.74867" lon="5.79424">
        <ele>502</ele>
        <time>2021-08-25T07:44:09Z</time>
      </trkpt>
      <trkpt lat="46.74886" lon="5.79442">
        <ele>501</ele>
        <time>2021-08-25T07:44:28Z</time>
      </trkpt>
      <trkpt lat="46.74927" lon="5.79464">
        <ele>502</ele>
        <time>2021-08-25T07:45:02Z</time>
      </trkpt>
      <trkpt lat="46.74933" lon="5.79466">
        <ele>502</ele>
        <time>2021-08-25T07:45:07Z</time>
      </trkpt>
      <trkpt lat="46.74944" lon="5.79474">
        <ele>502</ele>
        <time>2021-08-25T07:45:15Z</time>
      </trkpt>
      <trkpt lat="46.74961" lon="5.79478">
        <ele>502</ele>
        <time>2021-08-25T07:45:27Z</time>
      </trkpt>
      <trkpt lat="46.74965" lon="5.79486">
        <ele>502</ele>
        <time>2021-08-25T07:45:32Z</time>
      </trkpt>
      <trkpt lat="46.74999" lon="5.79512">
        <ele>502</ele>
        <time>2021-08-25T07:46:00Z</time>
      </trkpt>
      <trkpt lat="46.75012" lon="5.79515">
        <ele>502</ele>
        <time>2021-08-25T07:46:11Z</time>
      </trkpt>
      <trkpt lat="46.75041" lon="5.79531">
        <ele>502</ele>
        <time>2021-08-25T07:46:36Z</time>
      </trkpt>
      <trkpt lat="46.75046" lon="5.79537">
        <ele>502</ele>
        <time>2021-08-25T07:46:41Z</time>
      </trkpt>
      <trkpt lat="46.75071" lon="5.79552">
        <ele>503</ele>
        <time>2021-08-25T07:47:02Z</time>
      </trkpt>
      <trkpt lat="46.75082" lon="5.79563">
        <ele>503</ele>
        <time>2021-08-25T07:47:11Z</time>
      </trkpt>
      <trkpt lat="46.75121" lon="5.79591">
        <ele>503</ele>
        <time>2021-08-25T07:47:45Z</time>
      </trkpt>
      <trkpt lat="46.75128" lon="5.79595">
        <ele>503</ele>
        <time>2021-08-25T07:47:50Z</time>
      </trkpt>
      <trkpt lat="46.75133" lon="5.79597">
        <ele>503</ele>
        <time>2021-08-25T07:47:54Z</time>
      </trkpt>
      <trkpt lat="46.7514" lon="5.79602">
        <ele>503</ele>
        <time>2021-08-25T07:48:02Z</time>
      </trkpt>
      <trkpt lat="46.75153" lon="5.79606">
        <ele>503</ele>
        <time>2021-08-25T07:48:15Z</time>
      </trkpt>
      <trkpt lat="46.75164" lon="5.79618">
        <ele>503</ele>
        <time>2021-08-25T07:48:32Z</time>
      </trkpt>
      <trkpt lat="46.7518" lon="5.7963">
        <ele>503</ele>
        <time>2021-08-25T07:48:44Z</time>
      </trkpt>
      <trkpt lat="46.75185" lon="5.79632">
        <ele>503</ele>
        <time>2021-08-25T07:48:48Z</time>
      </trkpt>
      <trkpt lat="46.75226" lon="5.79652">
        <ele>502</ele>
        <time>2021-08-25T07:49:23Z</time>
      </trkpt>
      <trkpt lat="46.75253" lon="5.79664">
        <ele>503</ele>
        <time>2021-08-25T07:49:45Z</time>
      </trkpt>
      <trkpt lat="46.75268" lon="5.79681">
        <ele>503</ele>
        <time>2021-08-25T07:50:01Z</time>
      </trkpt>
      <trkpt lat="46.75286" lon="5.7969">
        <ele>503</ele>
        <time>2021-08-25T07:50:15Z</time>
      </trkpt>
      <trkpt lat="46.75301" lon="5.79705">
        <ele>503</ele>
        <time>2021-08-25T07:50:28Z</time>
      </trkpt>
      <trkpt lat="46.75305" lon="5.79711">
        <ele>503</ele>
        <time>2021-08-25T07:50:33Z</time>
      </trkpt>
      <trkpt lat="46.75322" lon="5.79726">
        <ele>503</ele>
        <time>2021-08-25T07:50:49Z</time>
      </trkpt>
      <trkpt lat="46.75335" lon="5.79745">
        <ele>503</ele>
        <time>2021-08-25T07:51:05Z</time>
      </trkpt>
      <trkpt lat="46.75341" lon="5.79749">
        <ele>503</ele>
        <time>2021-08-25T07:51:09Z</time>
      </trkpt>
      <trkpt lat="46.75365" lon="5.79772">
        <ele>503</ele>
        <time>2021-08-25T07:51:30Z</time>
      </trkpt>
      <trkpt lat="46.75377" lon="5.79795">
        <ele>502</ele>
        <time>2021-08-25T07:51:48Z</time>
      </trkpt>
      <trkpt lat="46.75379" lon="5.79804">
        <ele>502</ele>
        <time>2021-08-25T07:52:11Z</time>
      </trkpt>
      <trkpt lat="46.75385" lon="5.79807">
        <ele>502</ele>
        <time>2021-08-25T07:52:30Z</time>
      </trkpt>
      <trkpt lat="46.7539" lon="5.79805">
        <ele>502</ele>
        <time>2021-08-25T07:53:39Z</time>
      </trkpt>
      <trkpt lat="46.7539" lon="5.79807">
        <ele>502</ele>
        <time>2021-08-25T07:58:33Z</time>
      </trkpt>
      <trkpt lat="46.75399" lon="5.79822">
        <ele>502</ele>
        <time>2021-08-25T07:58:45Z</time>
      </trkpt>
      <trkpt lat="46.75404" lon="5.79826">
        <ele>502</ele>
        <time>2021-08-25T07:58:49Z</time>
      </trkpt>
      <trkpt lat="46.75418" lon="5.7984">
        <ele>502</ele>
        <time>2021-08-25T07:59:03Z</time>
      </trkpt>
      <trkpt lat="46.75423" lon="5.79845">
        <ele>502</ele>
        <time>2021-08-25T07:59:09Z</time>
      </trkpt>
      <trkpt lat="46.75437" lon="5.79867">
        <ele>502</ele>
        <time>2021-08-25T07:59:26Z</time>
      </trkpt>
      <trkpt lat="46.75445" lon="5.79877">
        <ele>503</ele>
        <time>2021-08-25T07:59:34Z</time>
      </trkpt>
      <trkpt lat="46.75448" lon="5.79885">
        <ele>503</ele>
        <time>2021-08-25T07:59:39Z</time>
      </trkpt>
      <trkpt lat="46.75453" lon="5.7989">
        <ele>503</ele>
        <time>2021-08-25T07:59:44Z</time>
      </trkpt>
      <trkpt lat="46.75475" lon="5.79934">
        <ele>504</ele>
        <time>2021-08-25T08:00:14Z</time>
      </trkpt>
      <trkpt lat="46.75479" lon="5.79941">
        <ele>503</ele>
        <time>2021-08-25T08:00:21Z</time>
      </trkpt>
      <trkpt lat="46.75484" lon="5.79947">
        <ele>504</ele>
        <time>2021-08-25T08:00:26Z</time>
      </trkpt>
      <trkpt lat="46.75488" lon="5.79952">
        <ele>504</ele>
        <time>2021-08-25T08:00:30Z</time>
      </trkpt>
      <trkpt lat="46.75494" lon="5.79965">
        <ele>504</ele>
        <time>2021-08-25T08:00:39Z</time>
      </trkpt>
      <trkpt lat="46.75497" lon="5.79974">
        <ele>504</ele>
        <time>2021-08-25T08:00:44Z</time>
      </trkpt>
      <trkpt lat="46.75502" lon="5.79979">
        <ele>506</ele>
        <time>2021-08-25T08:00:50Z</time>
      </trkpt>
      <trkpt lat="46.75505" lon="5.79987">
        <ele>505</ele>
        <time>2021-08-25T08:00:55Z</time>
      </trkpt>
      <trkpt lat="46.75507" lon="5.79995">
        <ele>505</ele>
        <time>2021-08-25T08:00:59Z</time>
      </trkpt>
      <trkpt lat="46.75506" lon="5.80003">
        <ele>505</ele>
        <time>2021-08-25T08:01:04Z</time>
      </trkpt>
      <trkpt lat="46.75509" lon="5.80013">
        <ele>505</ele>
        <time>2021-08-25T08:01:10Z</time>
      </trkpt>
      <trkpt lat="46.75517" lon="5.80025">
        <ele>505</ele>
        <time>2021-08-25T08:01:19Z</time>
      </trkpt>
      <trkpt lat="46.75528" lon="5.8004">
        <ele>506</ele>
        <time>2021-08-25T08:01:33Z</time>
      </trkpt>
      <trkpt lat="46.75537" lon="5.8005">
        <ele>506</ele>
        <time>2021-08-25T08:01:43Z</time>
      </trkpt>
      <trkpt lat="46.7554" lon="5.80058">
        <ele>506</ele>
        <time>2021-08-25T08:01:48Z</time>
      </trkpt>
      <trkpt lat="46.75541" lon="5.80067">
        <ele>506</ele>
        <time>2021-08-25T08:01:54Z</time>
      </trkpt>
      <trkpt lat="46.75545" lon="5.80074">
        <ele>506</ele>
        <time>2021-08-25T08:01:58Z</time>
      </trkpt>
      <trkpt lat="46.75556" lon="5.80083">
        <ele>506</ele>
        <time>2021-08-25T08:02:07Z</time>
      </trkpt>
      <trkpt lat="46.75559" lon="5.8009">
        <ele>507</ele>
        <time>2021-08-25T08:02:11Z</time>
      </trkpt>
      <trkpt lat="46.75562" lon="5.80098">
        <ele>507</ele>
        <time>2021-08-25T08:02:16Z</time>
      </trkpt>
      <trkpt lat="46.75573" lon="5.80112">
        <ele>507</ele>
        <time>2021-08-25T08:02:27Z</time>
      </trkpt>
      <trkpt lat="46.75578" lon="5.80125">
        <ele>507</ele>
        <time>2021-08-25T08:02:35Z</time>
      </trkpt>
      <trkpt lat="46.75587" lon="5.80139">
        <ele>508</ele>
        <time>2021-08-25T08:02:46Z</time>
      </trkpt>
      <trkpt lat="46.7561" lon="5.80189">
        <ele>509</ele>
        <time>2021-08-25T08:03:19Z</time>
      </trkpt>
      <trkpt lat="46.75641" lon="5.80234">
        <ele>509</ele>
        <time>2021-08-25T08:03:54Z</time>
      </trkpt>
      <trkpt lat="46.75645" lon="5.8024">
        <ele>509</ele>
        <time>2021-08-25T08:03:58Z</time>
      </trkpt>
      <trkpt lat="46.75668" lon="5.80285">
        <ele>510</ele>
        <time>2021-08-25T08:04:29Z</time>
      </trkpt>
      <trkpt lat="46.75673" lon="5.80293">
        <ele>510</ele>
        <time>2021-08-25T08:04:34Z</time>
      </trkpt>
      <trkpt lat="46.75676" lon="5.80299">
        <ele>510</ele>
        <time>2021-08-25T08:04:38Z</time>
      </trkpt>
      <trkpt lat="46.75694" lon="5.80325">
        <ele>511</ele>
        <time>2021-08-25T08:04:59Z</time>
      </trkpt>
      <trkpt lat="46.75701" lon="5.80327">
        <ele>511</ele>
        <time>2021-08-25T08:05:04Z</time>
      </trkpt>
      <trkpt lat="46.75706" lon="5.80331">
        <ele>511</ele>
        <time>2021-08-25T08:05:08Z</time>
      </trkpt>
      <trkpt lat="46.75715" lon="5.80331">
        <ele>511</ele>
        <time>2021-08-25T08:05:17Z</time>
      </trkpt>
      <trkpt lat="46.75726" lon="5.80337">
        <ele>512</ele>
        <time>2021-08-25T08:05:26Z</time>
      </trkpt>
      <trkpt lat="46.7573" lon="5.80342">
        <ele>512</ele>
        <time>2021-08-25T08:05:32Z</time>
      </trkpt>
      <trkpt lat="46.75735" lon="5.80346">
        <ele>512</ele>
        <time>2021-08-25T08:05:37Z</time>
      </trkpt>
      <trkpt lat="46.75749" lon="5.8035">
        <ele>512</ele>
        <time>2021-08-25T08:05:49Z</time>
      </trkpt>
      <trkpt lat="46.75755" lon="5.80351">
        <ele>513</ele>
        <time>2021-08-25T08:05:53Z</time>
      </trkpt>
      <trkpt lat="46.75772" lon="5.80348">
        <ele>513</ele>
        <time>2021-08-25T08:06:08Z</time>
      </trkpt>
      <trkpt lat="46.7578" lon="5.80348">
        <ele>514</ele>
        <time>2021-08-25T08:06:15Z</time>
      </trkpt>
      <trkpt lat="46.75786" lon="5.80346">
        <ele>514</ele>
        <time>2021-08-25T08:06:20Z</time>
      </trkpt>
      <trkpt lat="46.75796" lon="5.80345">
        <ele>514</ele>
        <time>2021-08-25T08:06:31Z</time>
      </trkpt>
      <trkpt lat="46.75806" lon="5.80344">
        <ele>514</ele>
        <time>2021-08-25T08:06:45Z</time>
      </trkpt>
      <trkpt lat="46.75827" lon="5.80358">
        <ele>514</ele>
        <time>2021-08-25T08:07:07Z</time>
      </trkpt>
      <trkpt lat="46.75832" lon="5.80364">
        <ele>514</ele>
        <time>2021-08-25T08:07:16Z</time>
      </trkpt>
      <trkpt lat="46.75838" lon="5.80366">
        <ele>513</ele>
        <time>2021-08-25T08:07:21Z</time>
      </trkpt>
      <trkpt lat="46.7585" lon="5.80376">
        <ele>513</ele>
        <time>2021-08-25T08:07:31Z</time>
      </trkpt>
      <trkpt lat="46.75855" lon="5.80376">
        <ele>513</ele>
        <time>2021-08-25T08:07:35Z</time>
      </trkpt>
      <trkpt lat="46.75869" lon="5.80381">
        <ele>513</ele>
        <time>2021-08-25T08:07:45Z</time>
      </trkpt>
      <trkpt lat="46.75874" lon="5.80384">
        <ele>512</ele>
        <time>2021-08-25T08:07:50Z</time>
      </trkpt>
      <trkpt lat="46.7588" lon="5.80386">
        <ele>512</ele>
        <time>2021-08-25T08:07:54Z</time>
      </trkpt>
      <trkpt lat="46.75918" lon="5.80412">
        <ele>513</ele>
        <time>2021-08-25T08:08:25Z</time>
      </trkpt>
      <trkpt lat="46.75934" lon="5.80422">
        <ele>513</ele>
        <time>2021-08-25T08:08:40Z</time>
      </trkpt>
      <trkpt lat="46.75944" lon="5.80434">
        <ele>514</ele>
        <time>2021-08-25T08:08:49Z</time>
      </trkpt>
      <trkpt lat="46.75954" lon="5.80443">
        <ele>513</ele>
        <time>2021-08-25T08:08:58Z</time>
      </trkpt>
      <trkpt lat="46.75962" lon="5.80456">
        <ele>513</ele>
        <time>2021-08-25T08:09:09Z</time>
      </trkpt>
      <trkpt lat="46.75968" lon="5.8046">
        <ele>513</ele>
        <time>2021-08-25T08:09:14Z</time>
      </trkpt>
      <trkpt lat="46.75972" lon="5.80467">
        <ele>513</ele>
        <time>2021-08-25T08:09:18Z</time>
      </trkpt>
      <trkpt lat="46.7598" lon="5.80473">
        <ele>513</ele>
        <time>2021-08-25T08:09:26Z</time>
      </trkpt>
      <trkpt lat="46.76003" lon="5.80502">
        <ele>512</ele>
        <time>2021-08-25T08:09:48Z</time>
      </trkpt>
      <trkpt lat="46.76009" lon="5.80509">
        <ele>512</ele>
        <time>2021-08-25T08:09:55Z</time>
      </trkpt>
      <trkpt lat="46.76016" lon="5.80514">
        <ele>512</ele>
        <time>2021-08-25T08:10:01Z</time>
      </trkpt>
      <trkpt lat="46.76044" lon="5.80551">
        <ele>510</ele>
        <time>2021-08-25T08:10:34Z</time>
      </trkpt>
      <trkpt lat="46.76057" lon="5.80586">
        <ele>510</ele>
        <time>2021-08-25T08:10:56Z</time>
      </trkpt>
      <trkpt lat="46.76062" lon="5.80592">
        <ele>510</ele>
        <time>2021-08-25T08:11:01Z</time>
      </trkpt>
      <trkpt lat="46.76068" lon="5.80595">
        <ele>510</ele>
        <time>2021-08-25T08:11:07Z</time>
      </trkpt>
      <trkpt lat="46.76075" lon="5.80597">
        <ele>510</ele>
        <time>2021-08-25T08:11:15Z</time>
      </trkpt>
      <trkpt lat="46.7608" lon="5.80594">
        <ele>510</ele>
        <time>2021-08-25T08:11:21Z</time>
      </trkpt>
      <trkpt lat="46.76086" lon="5.80592">
        <ele>511</ele>
        <time>2021-08-25T08:11:26Z</time>
      </trkpt>
      <trkpt lat="46.76091" lon="5.80593">
        <ele>511</ele>
        <time>2021-08-25T08:11:31Z</time>
      </trkpt>
      <trkpt lat="46.76097" lon="5.80595">
        <ele>511</ele>
        <time>2021-08-25T08:11:37Z</time>
      </trkpt>
      <trkpt lat="46.76104" lon="5.80601">
        <ele>512</ele>
        <time>2021-08-25T08:11:44Z</time>
      </trkpt>
      <trkpt lat="46.76118" lon="5.80616">
        <ele>512</ele>
        <time>2021-08-25T08:11:58Z</time>
      </trkpt>
      <trkpt lat="46.76125" lon="5.80617">
        <ele>513</ele>
        <time>2021-08-25T08:12:03Z</time>
      </trkpt>
      <trkpt lat="46.7613" lon="5.80622">
        <ele>513</ele>
        <time>2021-08-25T08:12:08Z</time>
      </trkpt>
      <trkpt lat="46.76136" lon="5.80625">
        <ele>513</ele>
        <time>2021-08-25T08:12:14Z</time>
      </trkpt>
      <trkpt lat="46.76156" lon="5.80644">
        <ele>512</ele>
        <time>2021-08-25T08:12:33Z</time>
      </trkpt>
      <trkpt lat="46.76167" lon="5.80658">
        <ele>513</ele>
        <time>2021-08-25T08:12:43Z</time>
      </trkpt>
      <trkpt lat="46.76174" lon="5.8066">
        <ele>513</ele>
        <time>2021-08-25T08:12:48Z</time>
      </trkpt>
      <trkpt lat="46.76179" lon="5.80664">
        <ele>513</ele>
        <time>2021-08-25T08:12:53Z</time>
      </trkpt>
      <trkpt lat="46.76186" lon="5.80665">
        <ele>513</ele>
        <time>2021-08-25T08:12:59Z</time>
      </trkpt>
      <trkpt lat="46.76198" lon="5.80666">
        <ele>513</ele>
        <time>2021-08-25T08:13:08Z</time>
      </trkpt>
      <trkpt lat="46.76209" lon="5.8066">
        <ele>513</ele>
        <time>2021-08-25T08:13:18Z</time>
      </trkpt>
      <trkpt lat="46.76216" lon="5.8066">
        <ele>514</ele>
        <time>2021-08-25T08:13:23Z</time>
      </trkpt>
      <trkpt lat="46.76256" lon="5.80644">
        <ele>516</ele>
        <time>2021-08-25T08:13:58Z</time>
      </trkpt>
      <trkpt lat="46.76265" lon="5.80635">
        <ele>517</ele>
        <time>2021-08-25T08:14:08Z</time>
      </trkpt>
      <trkpt lat="46.76278" lon="5.80618">
        <ele>518</ele>
        <time>2021-08-25T08:14:22Z</time>
      </trkpt>
      <trkpt lat="46.76288" lon="5.80607">
        <ele>518</ele>
        <time>2021-08-25T08:14:32Z</time>
      </trkpt>
      <trkpt lat="46.76324" lon="5.80591">
        <ele>521</ele>
        <time>2021-08-25T08:15:06Z</time>
      </trkpt>
      <trkpt lat="46.7633" lon="5.8059">
        <ele>522</ele>
        <time>2021-08-25T08:15:12Z</time>
      </trkpt>
      <trkpt lat="46.76336" lon="5.80588">
        <ele>523</ele>
        <time>2021-08-25T08:15:18Z</time>
      </trkpt>
      <trkpt lat="46.76342" lon="5.80587">
        <ele>523</ele>
        <time>2021-08-25T08:15:23Z</time>
      </trkpt>
      <trkpt lat="46.76352" lon="5.80586">
        <ele>524</ele>
        <time>2021-08-25T08:15:33Z</time>
      </trkpt>
      <trkpt lat="46.76357" lon="5.80583">
        <ele>525</ele>
        <time>2021-08-25T08:15:38Z</time>
      </trkpt>
      <trkpt lat="46.76366" lon="5.80572">
        <ele>526</ele>
        <time>2021-08-25T08:15:47Z</time>
      </trkpt>
      <trkpt lat="46.76368" lon="5.80578">
        <ele>527</ele>
        <time>2021-08-25T08:18:06Z</time>
      </trkpt>
      <trkpt lat="46.76371" lon="5.80571">
        <ele>527</ele>
        <time>2021-08-25T08:19:42Z</time>
      </trkpt>
      <trkpt lat="46.7637" lon="5.80577">
        <ele>527</ele>
        <time>2021-08-25T08:20:54Z</time>
      </trkpt>
      <trkpt lat="46.76381" lon="5.80576">
        <ele>527</ele>
        <time>2021-08-25T08:22:27Z</time>
      </trkpt>
      <trkpt lat="46.76389" lon="5.80575">
        <ele>527</ele>
        <time>2021-08-25T08:22:36Z</time>
      </trkpt>
      <trkpt lat="46.76401" lon="5.80581">
        <ele>527</ele>
        <time>2021-08-25T08:22:46Z</time>
      </trkpt>
      <trkpt lat="46.76419" lon="5.80595">
        <ele>527</ele>
        <time>2021-08-25T08:23:03Z</time>
      </trkpt>
      <trkpt lat="46.7643" lon="5.80601">
        <ele>528</ele>
        <time>2021-08-25T08:23:11Z</time>
      </trkpt>
      <trkpt lat="46.76448" lon="5.80619">
        <ele>529</ele>
        <time>2021-08-25T08:23:31Z</time>
      </trkpt>
      <trkpt lat="46.76459" lon="5.80651">
        <ele>529</ele>
        <time>2021-08-25T08:23:47Z</time>
      </trkpt>
      <trkpt lat="46.76463" lon="5.80657">
        <ele>528</ele>
        <time>2021-08-25T08:23:51Z</time>
      </trkpt>
      <trkpt lat="46.76495" lon="5.80688">
        <ele>528</ele>
        <time>2021-08-25T08:24:25Z</time>
      </trkpt>
      <trkpt lat="46.76512" lon="5.80707">
        <ele>528</ele>
        <time>2021-08-25T08:24:42Z</time>
      </trkpt>
      <trkpt lat="46.76522" lon="5.80715">
        <ele>528</ele>
        <time>2021-08-25T08:24:53Z</time>
      </trkpt>
      <trkpt lat="46.76535" lon="5.80734">
        <ele>528</ele>
        <time>2021-08-25T08:25:06Z</time>
      </trkpt>
      <trkpt lat="46.76563" lon="5.80757">
        <ele>528</ele>
        <time>2021-08-25T08:25:32Z</time>
      </trkpt>
      <trkpt lat="46.76589" lon="5.80777">
        <ele>528</ele>
        <time>2021-08-25T08:25:56Z</time>
      </trkpt>
      <trkpt lat="46.76602" lon="5.80796">
        <ele>528</ele>
        <time>2021-08-25T08:26:09Z</time>
      </trkpt>
      <trkpt lat="46.7662" lon="5.80803">
        <ele>527</ele>
        <time>2021-08-25T08:26:25Z</time>
      </trkpt>
      <trkpt lat="46.76656" lon="5.80837">
        <ele>528</ele>
        <time>2021-08-25T08:26:59Z</time>
      </trkpt>
      <trkpt lat="46.76665" lon="5.80849">
        <ele>528</ele>
        <time>2021-08-25T08:27:09Z</time>
      </trkpt>
      <trkpt lat="46.76697" lon="5.80869">
        <ele>528</ele>
        <time>2021-08-25T08:27:38Z</time>
      </trkpt>
      <trkpt lat="46.76714" lon="5.80896">
        <ele>528</ele>
        <time>2021-08-25T08:27:57Z</time>
      </trkpt>
      <trkpt lat="46.76729" lon="5.80903">
        <ele>528</ele>
        <time>2021-08-25T08:28:11Z</time>
      </trkpt>
      <trkpt lat="46.76751" lon="5.80938">
        <ele>529</ele>
        <time>2021-08-25T08:28:37Z</time>
      </trkpt>
      <trkpt lat="46.76763" lon="5.8095">
        <ele>529</ele>
        <time>2021-08-25T08:28:47Z</time>
      </trkpt>
      <trkpt lat="46.76778" lon="5.8096">
        <ele>529</ele>
        <time>2021-08-25T08:29:01Z</time>
      </trkpt>
      <trkpt lat="46.76798" lon="5.80977">
        <ele>530</ele>
        <time>2021-08-25T08:29:20Z</time>
      </trkpt>
      <trkpt lat="46.76806" lon="5.8098">
        <ele>530</ele>
        <time>2021-08-25T08:29:26Z</time>
      </trkpt>
      <trkpt lat="46.76815" lon="5.8099">
        <ele>530</ele>
        <time>2021-08-25T08:29:36Z</time>
      </trkpt>
      <trkpt lat="46.76838" lon="5.81">
        <ele>530</ele>
        <time>2021-08-25T08:29:56Z</time>
      </trkpt>
      <trkpt lat="46.76869" lon="5.8104">
        <ele>531</ele>
        <time>2021-08-25T08:30:28Z</time>
      </trkpt>
      <trkpt lat="46.76876" lon="5.81045">
        <ele>531</ele>
        <time>2021-08-25T08:30:34Z</time>
      </trkpt>
      <trkpt lat="46.76895" lon="5.81078">
        <ele>531</ele>
        <time>2021-08-25T08:30:58Z</time>
      </trkpt>
      <trkpt lat="46.769" lon="5.81082">
        <ele>531</ele>
        <time>2021-08-25T08:31:11Z</time>
      </trkpt>
      <trkpt lat="46.76898" lon="5.81088">
        <ele>531</ele>
        <time>2021-08-25T08:31:41Z</time>
      </trkpt>
      <trkpt lat="46.76903" lon="5.81094">
        <ele>530</ele>
        <time>2021-08-25T08:33:23Z</time>
      </trkpt>
      <trkpt lat="46.76908" lon="5.8109">
        <ele>530</ele>
        <time>2021-08-25T08:33:35Z</time>
      </trkpt>
      <trkpt lat="46.76914" lon="5.81087">
        <ele>531</ele>
        <time>2021-08-25T08:33:47Z</time>
      </trkpt>
      <trkpt lat="46.76919" lon="5.81103">
        <ele>531</ele>
        <time>2021-08-25T08:34:01Z</time>
      </trkpt>
      <trkpt lat="46.7693" lon="5.81119">
        <ele>532</ele>
        <time>2021-08-25T08:34:17Z</time>
      </trkpt>
      <trkpt lat="46.76935" lon="5.81125">
        <ele>531</ele>
        <time>2021-08-25T08:34:22Z</time>
      </trkpt>
      <trkpt lat="46.7694" lon="5.81129">
        <ele>532</ele>
        <time>2021-08-25T08:34:27Z</time>
      </trkpt>
      <trkpt lat="46.76946" lon="5.81143">
        <ele>532</ele>
        <time>2021-08-25T08:34:38Z</time>
      </trkpt>
      <trkpt lat="46.76959" lon="5.81155">
        <ele>531</ele>
        <time>2021-08-25T08:34:53Z</time>
      </trkpt>
      <trkpt lat="46.76966" lon="5.81158">
        <ele>531</ele>
        <time>2021-08-25T08:34:58Z</time>
      </trkpt>
      <trkpt lat="46.76974" lon="5.81159">
        <ele>531</ele>
        <time>2021-08-25T08:35:05Z</time>
      </trkpt>
      <trkpt lat="46.76997" lon="5.81178">
        <ele>531</ele>
        <time>2021-08-25T08:35:26Z</time>
      </trkpt>
      <trkpt lat="46.77002" lon="5.81187">
        <ele>532</ele>
        <time>2021-08-25T08:35:34Z</time>
      </trkpt>
      <trkpt lat="46.77009" lon="5.81191">
        <ele>531</ele>
        <time>2021-08-25T08:35:42Z</time>
      </trkpt>
      <trkpt lat="46.77015" lon="5.81197">
        <ele>531</ele>
        <time>2021-08-25T08:35:48Z</time>
      </trkpt>
      <trkpt lat="46.77026" lon="5.81205">
        <ele>532</ele>
        <time>2021-08-25T08:36:00Z</time>
      </trkpt>
      <trkpt lat="46.77038" lon="5.81217">
        <ele>532</ele>
        <time>2021-08-25T08:36:13Z</time>
      </trkpt>
      <trkpt lat="46.77072" lon="5.81245">
        <ele>532</ele>
        <time>2021-08-25T08:36:41Z</time>
      </trkpt>
      <trkpt lat="46.77091" lon="5.8127">
        <ele>533</ele>
        <time>2021-08-25T08:37:03Z</time>
      </trkpt>
      <trkpt lat="46.77096" lon="5.8128">
        <ele>533</ele>
        <time>2021-08-25T08:37:08Z</time>
      </trkpt>
      <trkpt lat="46.77099" lon="5.8129">
        <ele>533</ele>
        <time>2021-08-25T08:37:13Z</time>
      </trkpt>
      <trkpt lat="46.77105" lon="5.81311">
        <ele>533</ele>
        <time>2021-08-25T08:37:25Z</time>
      </trkpt>
      <trkpt lat="46.77105" lon="5.81323">
        <ele>533</ele>
        <time>2021-08-25T08:37:32Z</time>
      </trkpt>
      <trkpt lat="46.77103" lon="5.81358">
        <ele>532</ele>
        <time>2021-08-25T08:37:53Z</time>
      </trkpt>
      <trkpt lat="46.77114" lon="5.81387">
        <ele>531</ele>
        <time>2021-08-25T08:38:17Z</time>
      </trkpt>
      <trkpt lat="46.77124" lon="5.81396">
        <ele>531</ele>
        <time>2021-08-25T08:38:31Z</time>
      </trkpt>
      <trkpt lat="46.77131" lon="5.81412">
        <ele>531</ele>
        <time>2021-08-25T08:38:43Z</time>
      </trkpt>
      <trkpt lat="46.77143" lon="5.81428">
        <ele>531</ele>
        <time>2021-08-25T08:38:55Z</time>
      </trkpt>
      <trkpt lat="46.7715" lon="5.8145">
        <ele>531</ele>
        <time>2021-08-25T08:39:08Z</time>
      </trkpt>
      <trkpt lat="46.77153" lon="5.81459">
        <ele>532</ele>
        <time>2021-08-25T08:39:13Z</time>
      </trkpt>
      <trkpt lat="46.77152" lon="5.8148">
        <ele>532</ele>
        <time>2021-08-25T08:39:25Z</time>
      </trkpt>
      <trkpt lat="46.77159" lon="5.81488">
        <ele>532</ele>
        <time>2021-08-25T08:39:34Z</time>
      </trkpt>
      <trkpt lat="46.77166" lon="5.8149">
        <ele>532</ele>
        <time>2021-08-25T08:39:40Z</time>
      </trkpt>
      <trkpt lat="46.77175" lon="5.8149">
        <ele>533</ele>
        <time>2021-08-25T08:39:49Z</time>
      </trkpt>
      <trkpt lat="46.77199" lon="5.81494">
        <ele>534</ele>
        <time>2021-08-25T08:40:20Z</time>
      </trkpt>
      <trkpt lat="46.77207" lon="5.81497">
        <ele>535</ele>
        <time>2021-08-25T08:40:26Z</time>
      </trkpt>
      <trkpt lat="46.77216" lon="5.81498">
        <ele>535</ele>
        <time>2021-08-25T08:40:32Z</time>
      </trkpt>
      <trkpt lat="46.77223" lon="5.81498">
        <ele>536</ele>
        <time>2021-08-25T08:40:39Z</time>
      </trkpt>
      <trkpt lat="46.77232" lon="5.81485">
        <ele>537</ele>
        <time>2021-08-25T08:40:54Z</time>
      </trkpt>
      <trkpt lat="46.77243" lon="5.81477">
        <ele>539</ele>
        <time>2021-08-25T08:41:07Z</time>
      </trkpt>
      <trkpt lat="46.77253" lon="5.81473">
        <ele>540</ele>
        <time>2021-08-25T08:41:21Z</time>
      </trkpt>
      <trkpt lat="46.77262" lon="5.81467">
        <ele>541</ele>
        <time>2021-08-25T08:41:35Z</time>
      </trkpt>
      <trkpt lat="46.77273" lon="5.81462">
        <ele>542</ele>
        <time>2021-08-25T08:41:55Z</time>
      </trkpt>
      <trkpt lat="46.77278" lon="5.81453">
        <ele>542</ele>
        <time>2021-08-25T08:42:01Z</time>
      </trkpt>
      <trkpt lat="46.77286" lon="5.81435">
        <ele>542</ele>
        <time>2021-08-25T08:42:13Z</time>
      </trkpt>
      <trkpt lat="46.77301" lon="5.81406">
        <ele>545</ele>
        <time>2021-08-25T08:42:35Z</time>
      </trkpt>
      <trkpt lat="46.77302" lon="5.81391">
        <ele>546</ele>
        <time>2021-08-25T08:42:50Z</time>
      </trkpt>
      <trkpt lat="46.77306" lon="5.81377">
        <ele>548</ele>
        <time>2021-08-25T08:43:03Z</time>
      </trkpt>
      <trkpt lat="46.77316" lon="5.81374">
        <ele>550</ele>
        <time>2021-08-25T08:43:20Z</time>
      </trkpt>
      <trkpt lat="46.77323" lon="5.81376">
        <ele>551</ele>
        <time>2021-08-25T08:43:30Z</time>
      </trkpt>
      <trkpt lat="46.77371" lon="5.81368">
        <ele>558</ele>
        <time>2021-08-25T08:44:32Z</time>
      </trkpt>
      <trkpt lat="46.77412" lon="5.81366">
        <ele>561</ele>
        <time>2021-08-25T08:45:19Z</time>
      </trkpt>
      <trkpt lat="46.77436" lon="5.81391">
        <ele>563</ele>
        <time>2021-08-25T08:45:49Z</time>
      </trkpt>
      <trkpt lat="46.77472" lon="5.81394">
        <ele>566</ele>
        <time>2021-08-25T08:46:21Z</time>
      </trkpt>
      <trkpt lat="46.77504" lon="5.81409">
        <ele>570</ele>
        <time>2021-08-25T08:46:53Z</time>
      </trkpt>
      <trkpt lat="46.77528" lon="5.81421">
        <ele>572</ele>
        <time>2021-08-25T08:47:20Z</time>
      </trkpt>
      <trkpt lat="46.7754" lon="5.81433">
        <ele>573</ele>
        <time>2021-08-25T08:47:31Z</time>
      </trkpt>
      <trkpt lat="46.77581" lon="5.81457">
        <ele>577</ele>
        <time>2021-08-25T08:48:11Z</time>
      </trkpt>
      <trkpt lat="46.77594" lon="5.81468">
        <ele>577</ele>
        <time>2021-08-25T08:48:25Z</time>
      </trkpt>
      <trkpt lat="46.77619" lon="5.81493">
        <ele>576</ele>
        <time>2021-08-25T08:48:55Z</time>
      </trkpt>
      <trkpt lat="46.77642" lon="5.81523">
        <ele>578</ele>
        <time>2021-08-25T08:49:24Z</time>
      </trkpt>
      <trkpt lat="46.77683" lon="5.81549">
        <ele>581</ele>
        <time>2021-08-25T08:50:03Z</time>
      </trkpt>
      <trkpt lat="46.77721" lon="5.81583">
        <ele>585</ele>
        <time>2021-08-25T08:50:44Z</time>
      </trkpt>
      <trkpt lat="46.77727" lon="5.81589">
        <ele>585</ele>
        <time>2021-08-25T08:50:49Z</time>
      </trkpt>
      <trkpt lat="46.77742" lon="5.81596">
        <ele>585</ele>
        <time>2021-08-25T08:51:01Z</time>
      </trkpt>
      <trkpt lat="46.77748" lon="5.81602">
        <ele>585</ele>
        <time>2021-08-25T08:51:08Z</time>
      </trkpt>
      <trkpt lat="46.77768" lon="5.8161">
        <ele>585</ele>
        <time>2021-08-25T08:51:24Z</time>
      </trkpt>
      <trkpt lat="46.77774" lon="5.81613">
        <ele>586</ele>
        <time>2021-08-25T08:51:31Z</time>
      </trkpt>
      <trkpt lat="46.77797" lon="5.81639">
        <ele>589</ele>
        <time>2021-08-25T08:51:59Z</time>
      </trkpt>
      <trkpt lat="46.77823" lon="5.81662">
        <ele>592</ele>
        <time>2021-08-25T08:52:26Z</time>
      </trkpt>
      <trkpt lat="46.77853" lon="5.81692">
        <ele>591</ele>
        <time>2021-08-25T08:53:00Z</time>
      </trkpt>
      <trkpt lat="46.77868" lon="5.81731">
        <ele>591</ele>
        <time>2021-08-25T08:53:22Z</time>
      </trkpt>
      <trkpt lat="46.77875" lon="5.81775">
        <ele>590</ele>
        <time>2021-08-25T08:53:51Z</time>
      </trkpt>
      <trkpt lat="46.77886" lon="5.81789">
        <ele>588</ele>
        <time>2021-08-25T08:54:05Z</time>
      </trkpt>
      <trkpt lat="46.77899" lon="5.81805">
        <ele>588</ele>
        <time>2021-08-25T08:54:17Z</time>
      </trkpt>
      <trkpt lat="46.7791" lon="5.81845">
        <ele>588</ele>
        <time>2021-08-25T08:54:39Z</time>
      </trkpt>
      <trkpt lat="46.77916" lon="5.81862">
        <ele>589</ele>
        <time>2021-08-25T08:54:55Z</time>
      </trkpt>
      <trkpt lat="46.77924" lon="5.8189">
        <ele>588</ele>
        <time>2021-08-25T08:55:19Z</time>
      </trkpt>
      <trkpt lat="46.77944" lon="5.81914">
        <ele>588</ele>
        <time>2021-08-25T08:55:43Z</time>
      </trkpt>
      <trkpt lat="46.77954" lon="5.81928">
        <ele>589</ele>
        <time>2021-08-25T08:55:56Z</time>
      </trkpt>
      <trkpt lat="46.77957" lon="5.81942">
        <ele>589</ele>
        <time>2021-08-25T08:56:06Z</time>
      </trkpt>
      <trkpt lat="46.77958" lon="5.81953">
        <ele>588</ele>
        <time>2021-08-25T08:56:12Z</time>
      </trkpt>
      <trkpt lat="46.7796" lon="5.81964">
        <ele>589</ele>
        <time>2021-08-25T08:56:19Z</time>
      </trkpt>
      <trkpt lat="46.77978" lon="5.82009">
        <ele>590</ele>
        <time>2021-08-25T08:56:47Z</time>
      </trkpt>
      <trkpt lat="46.7799" lon="5.82031">
        <ele>591</ele>
        <time>2021-08-25T08:57:03Z</time>
      </trkpt>
      <trkpt lat="46.77996" lon="5.82035">
        <ele>590</ele>
        <time>2021-08-25T08:57:07Z</time>
      </trkpt>
      <trkpt lat="46.78002" lon="5.8204">
        <ele>590</ele>
        <time>2021-08-25T08:57:14Z</time>
      </trkpt>
      <trkpt lat="46.78008" lon="5.82042">
        <ele>590</ele>
        <time>2021-08-25T08:57:19Z</time>
      </trkpt>
      <trkpt lat="46.78014" lon="5.82045">
        <ele>590</ele>
        <time>2021-08-25T08:57:28Z</time>
      </trkpt>
      <trkpt lat="46.7803" lon="5.82054">
        <ele>590</ele>
        <time>2021-08-25T08:57:48Z</time>
      </trkpt>
      <trkpt lat="46.78053" lon="5.82072">
        <ele>591</ele>
        <time>2021-08-25T08:58:05Z</time>
      </trkpt>
      <trkpt lat="46.78059" lon="5.82075">
        <ele>592</ele>
        <time>2021-08-25T08:58:10Z</time>
      </trkpt>
      <trkpt lat="46.78065" lon="5.82081">
        <ele>593</ele>
        <time>2021-08-25T08:58:16Z</time>
      </trkpt>
      <trkpt lat="46.78067" lon="5.82087">
        <ele>593</ele>
        <time>2021-08-25T08:58:21Z</time>
      </trkpt>
      <trkpt lat="46.78071" lon="5.82093">
        <ele>594</ele>
        <time>2021-08-25T08:58:26Z</time>
      </trkpt>
      <trkpt lat="46.78076" lon="5.821">
        <ele>594</ele>
        <time>2021-08-25T08:58:31Z</time>
      </trkpt>
      <trkpt lat="46.7808" lon="5.82115">
        <ele>594</ele>
        <time>2021-08-25T08:58:39Z</time>
      </trkpt>
      <trkpt lat="46.78086" lon="5.82119">
        <ele>594</ele>
        <time>2021-08-25T08:58:45Z</time>
      </trkpt>
      <trkpt lat="46.78097" lon="5.8214">
        <ele>595</ele>
        <time>2021-08-25T08:58:59Z</time>
      </trkpt>
      <trkpt lat="46.78102" lon="5.82146">
        <ele>596</ele>
        <time>2021-08-25T08:59:04Z</time>
      </trkpt>
      <trkpt lat="46.78109" lon="5.82156">
        <ele>597</ele>
        <time>2021-08-25T08:59:15Z</time>
      </trkpt>
      <trkpt lat="46.78116" lon="5.8217">
        <ele>597</ele>
        <time>2021-08-25T08:59:22Z</time>
      </trkpt>
      <trkpt lat="46.78126" lon="5.82183">
        <ele>597</ele>
        <time>2021-08-25T08:59:32Z</time>
      </trkpt>
      <trkpt lat="46.78128" lon="5.8219">
        <ele>597</ele>
        <time>2021-08-25T08:59:36Z</time>
      </trkpt>
      <trkpt lat="46.78141" lon="5.8221">
        <ele>597</ele>
        <time>2021-08-25T08:59:50Z</time>
      </trkpt>
      <trkpt lat="46.78171" lon="5.82237">
        <ele>598</ele>
        <time>2021-08-25T09:00:20Z</time>
      </trkpt>
      <trkpt lat="46.78183" lon="5.82246">
        <ele>598</ele>
        <time>2021-08-25T09:00:29Z</time>
      </trkpt>
      <trkpt lat="46.78188" lon="5.82251">
        <ele>598</ele>
        <time>2021-08-25T09:00:34Z</time>
      </trkpt>
      <trkpt lat="46.78194" lon="5.82254">
        <ele>598</ele>
        <time>2021-08-25T09:00:39Z</time>
      </trkpt>
      <trkpt lat="46.7821" lon="5.8227">
        <ele>599</ele>
        <time>2021-08-25T09:00:56Z</time>
      </trkpt>
      <trkpt lat="46.78214" lon="5.82277">
        <ele>599</ele>
        <time>2021-08-25T09:01:02Z</time>
      </trkpt>
      <trkpt lat="46.78219" lon="5.82282">
        <ele>600</ele>
        <time>2021-08-25T09:01:07Z</time>
      </trkpt>
      <trkpt lat="46.78226" lon="5.82288">
        <ele>601</ele>
        <time>2021-08-25T09:01:15Z</time>
      </trkpt>
      <trkpt lat="46.78231" lon="5.82293">
        <ele>601</ele>
        <time>2021-08-25T09:01:20Z</time>
      </trkpt>
      <trkpt lat="46.7827" lon="5.82328">
        <ele>603</ele>
        <time>2021-08-25T09:02:03Z</time>
      </trkpt>
      <trkpt lat="46.78278" lon="5.82332">
        <ele>603</ele>
        <time>2021-08-25T09:02:09Z</time>
      </trkpt>
      <trkpt lat="46.78305" lon="5.82356">
        <ele>605</ele>
        <time>2021-08-25T09:02:36Z</time>
      </trkpt>
      <trkpt lat="46.78309" lon="5.82366">
        <ele>605</ele>
        <time>2021-08-25T09:02:42Z</time>
      </trkpt>
      <trkpt lat="46.78316" lon="5.82372">
        <ele>606</ele>
        <time>2021-08-25T09:02:48Z</time>
      </trkpt>
      <trkpt lat="46.78319" lon="5.82381">
        <ele>606</ele>
        <time>2021-08-25T09:02:54Z</time>
      </trkpt>
      <trkpt lat="46.78324" lon="5.82391">
        <ele>606</ele>
        <time>2021-08-25T09:03:00Z</time>
      </trkpt>
      <trkpt lat="46.78336" lon="5.82399">
        <ele>607</ele>
        <time>2021-08-25T09:03:14Z</time>
      </trkpt>
      <trkpt lat="46.78349" lon="5.82412">
        <ele>608</ele>
        <time>2021-08-25T09:03:27Z</time>
      </trkpt>
      <trkpt lat="46.78363" lon="5.82427">
        <ele>608</ele>
        <time>2021-08-25T09:10:31Z</time>
      </trkpt>
      <trkpt lat="46.78364" lon="5.82411">
        <ele>610</ele>
        <time>2021-08-25T09:10:47Z</time>
      </trkpt>
      <trkpt lat="46.78371" lon="5.82398">
        <ele>612</ele>
        <time>2021-08-25T09:11:04Z</time>
      </trkpt>
      <trkpt lat="46.78374" lon="5.82377">
        <ele>613</ele>
        <time>2021-08-25T09:11:21Z</time>
      </trkpt>
      <trkpt lat="46.78373" lon="5.82343">
        <ele>618</ele>
        <time>2021-08-25T09:11:54Z</time>
      </trkpt>
      <trkpt lat="46.78376" lon="5.82332">
        <ele>620</ele>
        <time>2021-08-25T09:12:10Z</time>
      </trkpt>
      <trkpt lat="46.78365" lon="5.82295">
        <ele>624</ele>
        <time>2021-08-25T09:12:47Z</time>
      </trkpt>
      <trkpt lat="46.7837" lon="5.82282">
        <ele>626</ele>
        <time>2021-08-25T09:13:01Z</time>
      </trkpt>
      <trkpt lat="46.78372" lon="5.8227">
        <ele>627</ele>
        <time>2021-08-25T09:13:10Z</time>
      </trkpt>
      <trkpt lat="46.78377" lon="5.8226">
        <ele>629</ele>
        <time>2021-08-25T09:13:25Z</time>
      </trkpt>
      <trkpt lat="46.78379" lon="5.82236">
        <ele>631</ele>
        <time>2021-08-25T09:13:42Z</time>
      </trkpt>
      <trkpt lat="46.78375" lon="5.82227">
        <ele>633</ele>
        <time>2021-08-25T09:13:56Z</time>
      </trkpt>
      <trkpt lat="46.78375" lon="5.82214">
        <ele>636</ele>
        <time>2021-08-25T09:14:13Z</time>
      </trkpt>
      <trkpt lat="46.78363" lon="5.82211">
        <ele>636</ele>
        <time>2021-08-25T09:15:43Z</time>
      </trkpt>
      <trkpt lat="46.78358" lon="5.82219">
        <ele>636</ele>
        <time>2021-08-25T09:16:07Z</time>
      </trkpt>
      <trkpt lat="46.7836" lon="5.82218">
        <ele>635</ele>
        <time>2021-08-25T09:18:34Z</time>
      </trkpt>
      <trkpt lat="46.78359" lon="5.82208">
        <ele>634</ele>
        <time>2021-08-25T09:19:04Z</time>
      </trkpt>
      <trkpt lat="46.78356" lon="5.82186">
        <ele>636</ele>
        <time>2021-08-25T09:19:22Z</time>
      </trkpt>
      <trkpt lat="46.78358" lon="5.82167">
        <ele>637</ele>
        <time>2021-08-25T09:19:36Z</time>
      </trkpt>
      <trkpt lat="46.78358" lon="5.82159">
        <ele>638</ele>
        <time>2021-08-25T09:19:42Z</time>
      </trkpt>
      <trkpt lat="46.78357" lon="5.82151">
        <ele>639</ele>
        <time>2021-08-25T09:19:50Z</time>
      </trkpt>
      <trkpt lat="46.78357" lon="5.8214">
        <ele>640</ele>
        <time>2021-08-25T09:20:10Z</time>
      </trkpt>
      <trkpt lat="46.7835" lon="5.82132">
        <ele>641</ele>
        <time>2021-08-25T09:20:28Z</time>
      </trkpt>
      <trkpt lat="46.78344" lon="5.82123">
        <ele>642</ele>
        <time>2021-08-25T09:20:35Z</time>
      </trkpt>
      <trkpt lat="46.78336" lon="5.8209">
        <ele>642</ele>
        <time>2021-08-25T09:20:53Z</time>
      </trkpt>
      <trkpt lat="46.78334" lon="5.82071">
        <ele>644</ele>
        <time>2021-08-25T09:21:06Z</time>
      </trkpt>
      <trkpt lat="46.78338" lon="5.8206">
        <ele>645</ele>
        <time>2021-08-25T09:21:13Z</time>
      </trkpt>
      <trkpt lat="46.78339" lon="5.82052">
        <ele>646</ele>
        <time>2021-08-25T09:21:19Z</time>
      </trkpt>
      <trkpt lat="46.78336" lon="5.82044">
        <ele>646</ele>
        <time>2021-08-25T09:21:25Z</time>
      </trkpt>
      <trkpt lat="46.78337" lon="5.82036">
        <ele>646</ele>
        <time>2021-08-25T09:21:30Z</time>
      </trkpt>
      <trkpt lat="46.78334" lon="5.82024">
        <ele>646</ele>
        <time>2021-08-25T09:21:41Z</time>
      </trkpt>
      <trkpt lat="46.78332" lon="5.82015">
        <ele>645</ele>
        <time>2021-08-25T09:21:46Z</time>
      </trkpt>
      <trkpt lat="46.78328" lon="5.82007">
        <ele>645</ele>
        <time>2021-08-25T09:21:51Z</time>
      </trkpt>
      <trkpt lat="46.783" lon="5.81981">
        <ele>644</ele>
        <time>2021-08-25T09:22:24Z</time>
      </trkpt>
      <trkpt lat="46.78297" lon="5.81973">
        <ele>644</ele>
        <time>2021-08-25T09:22:29Z</time>
      </trkpt>
      <trkpt lat="46.78277" lon="5.81947">
        <ele>643</ele>
        <time>2021-08-25T09:22:56Z</time>
      </trkpt>
      <trkpt lat="46.78271" lon="5.81937">
        <ele>643</ele>
        <time>2021-08-25T09:23:04Z</time>
      </trkpt>
      <trkpt lat="46.7826" lon="5.81927">
        <ele>643</ele>
        <time>2021-08-25T09:23:13Z</time>
      </trkpt>
      <trkpt lat="46.78256" lon="5.81921">
        <ele>643</ele>
        <time>2021-08-25T09:23:18Z</time>
      </trkpt>
      <trkpt lat="46.78253" lon="5.81914">
        <ele>643</ele>
        <time>2021-08-25T09:23:23Z</time>
      </trkpt>
      <trkpt lat="46.78241" lon="5.81902">
        <ele>643</ele>
        <time>2021-08-25T09:23:38Z</time>
      </trkpt>
      <trkpt lat="46.78237" lon="5.81883">
        <ele>642</ele>
        <time>2021-08-25T09:23:54Z</time>
      </trkpt>
      <trkpt lat="46.78229" lon="5.81874">
        <ele>642</ele>
        <time>2021-08-25T09:24:06Z</time>
      </trkpt>
      <trkpt lat="46.78224" lon="5.81858">
        <ele>642</ele>
        <time>2021-08-25T09:24:20Z</time>
      </trkpt>
      <trkpt lat="46.78218" lon="5.81849">
        <ele>642</ele>
        <time>2021-08-25T09:24:26Z</time>
      </trkpt>
      <trkpt lat="46.78209" lon="5.81836">
        <ele>641</ele>
        <time>2021-08-25T09:24:35Z</time>
      </trkpt>
      <trkpt lat="46.78205" lon="5.8183">
        <ele>642</ele>
        <time>2021-08-25T09:24:41Z</time>
      </trkpt>
      <trkpt lat="46.78194" lon="5.8182">
        <ele>642</ele>
        <time>2021-08-25T09:24:49Z</time>
      </trkpt>
      <trkpt lat="46.78189" lon="5.81815">
        <ele>642</ele>
        <time>2021-08-25T09:24:54Z</time>
      </trkpt>
      <trkpt lat="46.78177" lon="5.81798">
        <ele>641</ele>
        <time>2021-08-25T09:25:19Z</time>
      </trkpt>
      <trkpt lat="46.78171" lon="5.81787">
        <ele>641</ele>
        <time>2021-08-25T09:25:32Z</time>
      </trkpt>
      <trkpt lat="46.78166" lon="5.81783">
        <ele>641</ele>
        <time>2021-08-25T09:25:36Z</time>
      </trkpt>
      <trkpt lat="46.78156" lon="5.81774">
        <ele>640</ele>
        <time>2021-08-25T09:25:52Z</time>
      </trkpt>
      <trkpt lat="46.7815" lon="5.81758">
        <ele>639</ele>
        <time>2021-08-25T09:26:06Z</time>
      </trkpt>
      <trkpt lat="46.78144" lon="5.8175">
        <ele>639</ele>
        <time>2021-08-25T09:26:11Z</time>
      </trkpt>
      <trkpt lat="46.78137" lon="5.81746">
        <ele>639</ele>
        <time>2021-08-25T09:26:15Z</time>
      </trkpt>
      <trkpt lat="46.78129" lon="5.8174">
        <ele>639</ele>
        <time>2021-08-25T09:26:20Z</time>
      </trkpt>
      <trkpt lat="46.78123" lon="5.81733">
        <ele>639</ele>
        <time>2021-08-25T09:26:26Z</time>
      </trkpt>
      <trkpt lat="46.78106" lon="5.81702">
        <ele>639</ele>
        <time>2021-08-25T09:26:52Z</time>
      </trkpt>
      <trkpt lat="46.78087" lon="5.8168">
        <ele>638</ele>
        <time>2021-08-25T09:27:14Z</time>
      </trkpt>
      <trkpt lat="46.78077" lon="5.81669">
        <ele>638</ele>
        <time>2021-08-25T09:27:32Z</time>
      </trkpt>
      <trkpt lat="46.78071" lon="5.81659">
        <ele>638</ele>
        <time>2021-08-25T09:27:42Z</time>
      </trkpt>
      <trkpt lat="46.78066" lon="5.8165">
        <ele>638</ele>
        <time>2021-08-25T09:27:49Z</time>
      </trkpt>
      <trkpt lat="46.78055" lon="5.81636">
        <ele>638</ele>
        <time>2021-08-25T09:28:02Z</time>
      </trkpt>
      <trkpt lat="46.78042" lon="5.8161">
        <ele>639</ele>
        <time>2021-08-25T09:28:21Z</time>
      </trkpt>
      <trkpt lat="46.78036" lon="5.81597">
        <ele>640</ele>
        <time>2021-08-25T09:28:33Z</time>
      </trkpt>
      <trkpt lat="46.78033" lon="5.81586">
        <ele>640</ele>
        <time>2021-08-25T09:28:40Z</time>
      </trkpt>
      <trkpt lat="46.78028" lon="5.81578">
        <ele>640</ele>
        <time>2021-08-25T09:28:47Z</time>
      </trkpt>
      <trkpt lat="46.78015" lon="5.8155">
        <ele>640</ele>
        <time>2021-08-25T09:29:10Z</time>
      </trkpt>
      <trkpt lat="46.78005" lon="5.81537">
        <ele>639</ele>
        <time>2021-08-25T09:29:22Z</time>
      </trkpt>
      <trkpt lat="46.77988" lon="5.81521">
        <ele>638</ele>
        <time>2021-08-25T09:29:42Z</time>
      </trkpt>
      <trkpt lat="46.77982" lon="5.81511">
        <ele>638</ele>
        <time>2021-08-25T09:29:49Z</time>
      </trkpt>
      <trkpt lat="46.77972" lon="5.81501">
        <ele>638</ele>
        <time>2021-08-25T09:30:03Z</time>
      </trkpt>
      <trkpt lat="46.77967" lon="5.8149">
        <ele>638</ele>
        <time>2021-08-25T09:30:10Z</time>
      </trkpt>
      <trkpt lat="46.77948" lon="5.81464">
        <ele>636</ele>
        <time>2021-08-25T09:30:34Z</time>
      </trkpt>
      <trkpt lat="46.77944" lon="5.81456">
        <ele>636</ele>
        <time>2021-08-25T09:30:39Z</time>
      </trkpt>
      <trkpt lat="46.77927" lon="5.81442">
        <ele>635</ele>
        <time>2021-08-25T09:30:58Z</time>
      </trkpt>
      <trkpt lat="46.77922" lon="5.81435">
        <ele>635</ele>
        <time>2021-08-25T09:31:06Z</time>
      </trkpt>
      <trkpt lat="46.77917" lon="5.81431">
        <ele>634</ele>
        <time>2021-08-25T09:31:10Z</time>
      </trkpt>
      <trkpt lat="46.77911" lon="5.81426">
        <ele>634</ele>
        <time>2021-08-25T09:31:15Z</time>
      </trkpt>
      <trkpt lat="46.77901" lon="5.81417">
        <ele>634</ele>
        <time>2021-08-25T09:31:26Z</time>
      </trkpt>
      <trkpt lat="46.7788" lon="5.81386">
        <ele>632</ele>
        <time>2021-08-25T09:31:52Z</time>
      </trkpt>
      <trkpt lat="46.7785" lon="5.81352">
        <ele>630</ele>
        <time>2021-08-25T09:32:24Z</time>
      </trkpt>
      <trkpt lat="46.77838" lon="5.8134">
        <ele>630</ele>
        <time>2021-08-25T09:32:37Z</time>
      </trkpt>
      <trkpt lat="46.7783" lon="5.81335">
        <ele>630</ele>
        <time>2021-08-25T09:32:48Z</time>
      </trkpt>
      <trkpt lat="46.77826" lon="5.81331">
        <ele>630</ele>
        <time>2021-08-25T09:32:52Z</time>
      </trkpt>
      <trkpt lat="46.77821" lon="5.81326">
        <ele>630</ele>
        <time>2021-08-25T09:32:57Z</time>
      </trkpt>
      <trkpt lat="46.77816" lon="5.81322">
        <ele>631</ele>
        <time>2021-08-25T09:33:02Z</time>
      </trkpt>
      <trkpt lat="46.77804" lon="5.81297">
        <ele>632</ele>
        <time>2021-08-25T09:33:23Z</time>
      </trkpt>
      <trkpt lat="46.77791" lon="5.8129">
        <ele>634</ele>
        <time>2021-08-25T09:33:38Z</time>
      </trkpt>
      <trkpt lat="46.77782" lon="5.81282">
        <ele>633</ele>
        <time>2021-08-25T09:33:48Z</time>
      </trkpt>
      <trkpt lat="46.77777" lon="5.8128">
        <ele>632</ele>
        <time>2021-08-25T09:33:52Z</time>
      </trkpt>
      <trkpt lat="46.77766" lon="5.81284">
        <ele>631</ele>
        <time>2021-08-25T09:34:02Z</time>
      </trkpt>
      <trkpt lat="46.77759" lon="5.81275">
        <ele>629</ele>
        <time>2021-08-25T09:34:17Z</time>
      </trkpt>
      <trkpt lat="46.7775" lon="5.8127">
        <ele>628</ele>
        <time>2021-08-25T09:34:24Z</time>
      </trkpt>
      <trkpt lat="46.77744" lon="5.81263">
        <ele>628</ele>
        <time>2021-08-25T09:34:30Z</time>
      </trkpt>
      <trkpt lat="46.7774" lon="5.81254">
        <ele>628</ele>
        <time>2021-08-25T09:34:37Z</time>
      </trkpt>
      <trkpt lat="46.77727" lon="5.81224">
        <ele>629</ele>
        <time>2021-08-25T09:34:59Z</time>
      </trkpt>
      <trkpt lat="46.77723" lon="5.81216">
        <ele>630</ele>
        <time>2021-08-25T09:35:05Z</time>
      </trkpt>
      <trkpt lat="46.7771" lon="5.81204">
        <ele>629</ele>
        <time>2021-08-25T09:35:17Z</time>
      </trkpt>
      <trkpt lat="46.77703" lon="5.81201">
        <ele>629</ele>
        <time>2021-08-25T09:35:22Z</time>
      </trkpt>
      <trkpt lat="46.77699" lon="5.81196">
        <ele>629</ele>
        <time>2021-08-25T09:35:27Z</time>
      </trkpt>
      <trkpt lat="46.77695" lon="5.81189">
        <ele>629</ele>
        <time>2021-08-25T09:35:32Z</time>
      </trkpt>
      <trkpt lat="46.7769" lon="5.81184">
        <ele>629</ele>
        <time>2021-08-25T09:35:37Z</time>
      </trkpt>
      <trkpt lat="46.77687" lon="5.81175">
        <ele>629</ele>
        <time>2021-08-25T09:35:43Z</time>
      </trkpt>
      <trkpt lat="46.7768" lon="5.81163">
        <ele>629</ele>
        <time>2021-08-25T09:35:58Z</time>
      </trkpt>
      <trkpt lat="46.77677" lon="5.8115">
        <ele>628</ele>
        <time>2021-08-25T09:36:16Z</time>
      </trkpt>
      <trkpt lat="46.77678" lon="5.81138">
        <ele>629</ele>
        <time>2021-08-25T09:36:24Z</time>
      </trkpt>
      <trkpt lat="46.77669" lon="5.81071">
        <ele>632</ele>
        <time>2021-08-25T09:36:57Z</time>
      </trkpt>
      <trkpt lat="46.77669" lon="5.81054">
        <ele>632</ele>
        <time>2021-08-25T09:37:12Z</time>
      </trkpt>
      <trkpt lat="46.77665" lon="5.81048">
        <ele>633</ele>
        <time>2021-08-25T09:37:21Z</time>
      </trkpt>
      <trkpt lat="46.77658" lon="5.81046">
        <ele>634</ele>
        <time>2021-08-25T09:37:51Z</time>
      </trkpt>
      <trkpt lat="46.77653" lon="5.81042">
        <ele>634</ele>
        <time>2021-08-25T09:38:15Z</time>
      </trkpt>
      <trkpt lat="46.77656" lon="5.81042">
        <ele>632</ele>
        <time>2021-08-25T09:39:45Z</time>
      </trkpt>
      <trkpt lat="46.77621" lon="5.81161">
        <ele>587</ele>
        <time>2021-08-25T10:26:43Z</time>
      </trkpt>
      <trkpt lat="46.7761" lon="5.81157">
        <ele>624</ele>
        <time>2021-08-25T10:27:03Z</time>
      </trkpt>
      <trkpt lat="46.77598" lon="5.8115">
        <ele>624</ele>
        <time>2021-08-25T10:27:26Z</time>
      </trkpt>
      <trkpt lat="46.77585" lon="5.81144">
        <ele>624</ele>
        <time>2021-08-25T10:27:40Z</time>
      </trkpt>
      <trkpt lat="46.77579" lon="5.81146">
        <ele>624</ele>
        <time>2021-08-25T10:28:00Z</time>
      </trkpt>
      <trkpt lat="46.77573" lon="5.81147">
        <ele>624</ele>
        <time>2021-08-25T10:28:06Z</time>
      </trkpt>
      <trkpt lat="46.77568" lon="5.81141">
        <ele>624</ele>
        <time>2021-08-25T10:28:11Z</time>
      </trkpt>
      <trkpt lat="46.77565" lon="5.81134">
        <ele>624</ele>
        <time>2021-08-25T10:28:17Z</time>
      </trkpt>
      <trkpt lat="46.77555" lon="5.8113">
        <ele>624</ele>
        <time>2021-08-25T10:28:27Z</time>
      </trkpt>
      <trkpt lat="46.77546" lon="5.81118">
        <ele>624</ele>
        <time>2021-08-25T10:28:41Z</time>
      </trkpt>
      <trkpt lat="46.77543" lon="5.81111">
        <ele>624</ele>
        <time>2021-08-25T10:28:46Z</time>
      </trkpt>
      <trkpt lat="46.77537" lon="5.81103">
        <ele>624</ele>
        <time>2021-08-25T10:28:56Z</time>
      </trkpt>
      <trkpt lat="46.77529" lon="5.81089">
        <ele>625</ele>
        <time>2021-08-25T10:29:07Z</time>
      </trkpt>
      <trkpt lat="46.77525" lon="5.81083">
        <ele>625</ele>
        <time>2021-08-25T10:29:13Z</time>
      </trkpt>
      <trkpt lat="46.77518" lon="5.81069">
        <ele>626</ele>
        <time>2021-08-25T10:29:29Z</time>
      </trkpt>
      <trkpt lat="46.77514" lon="5.81063">
        <ele>627</ele>
        <time>2021-08-25T10:29:39Z</time>
      </trkpt>
      <trkpt lat="46.77484" lon="5.81024">
        <ele>630</ele>
        <time>2021-08-25T10:30:17Z</time>
      </trkpt>
      <trkpt lat="46.7747" lon="5.81008">
        <ele>631</ele>
        <time>2021-08-25T10:30:31Z</time>
      </trkpt>
      <trkpt lat="46.77459" lon="5.80984">
        <ele>631</ele>
        <time>2021-08-25T10:30:47Z</time>
      </trkpt>
      <trkpt lat="46.77454" lon="5.80977">
        <ele>631</ele>
        <time>2021-08-25T10:30:55Z</time>
      </trkpt>
      <trkpt lat="46.77448" lon="5.80973">
        <ele>631</ele>
        <time>2021-08-25T10:31:00Z</time>
      </trkpt>
      <trkpt lat="46.77441" lon="5.80959">
        <ele>632</ele>
        <time>2021-08-25T10:31:09Z</time>
      </trkpt>
      <trkpt lat="46.7742" lon="5.80939">
        <ele>635</ele>
        <time>2021-08-25T10:31:33Z</time>
      </trkpt>
      <trkpt lat="46.77417" lon="5.80932">
        <ele>635</ele>
        <time>2021-08-25T10:31:39Z</time>
      </trkpt>
      <trkpt lat="46.77412" lon="5.80926">
        <ele>636</ele>
        <time>2021-08-25T10:31:44Z</time>
      </trkpt>
      <trkpt lat="46.77398" lon="5.80919">
        <ele>637</ele>
        <time>2021-08-25T10:31:56Z</time>
      </trkpt>
      <trkpt lat="46.77393" lon="5.80915">
        <ele>637</ele>
        <time>2021-08-25T10:32:00Z</time>
      </trkpt>
      <trkpt lat="46.77388" lon="5.80912">
        <ele>637</ele>
        <time>2021-08-25T10:32:05Z</time>
      </trkpt>
      <trkpt lat="46.77383" lon="5.80907">
        <ele>638</ele>
        <time>2021-08-25T10:32:10Z</time>
      </trkpt>
      <trkpt lat="46.77366" lon="5.80891">
        <ele>638</ele>
        <time>2021-08-25T10:32:28Z</time>
      </trkpt>
      <trkpt lat="46.77356" lon="5.80878">
        <ele>637</ele>
        <time>2021-08-25T10:32:40Z</time>
      </trkpt>
      <trkpt lat="46.77345" lon="5.80865">
        <ele>637</ele>
        <time>2021-08-25T10:32:55Z</time>
      </trkpt>
      <trkpt lat="46.77341" lon="5.80858">
        <ele>637</ele>
        <time>2021-08-25T10:33:01Z</time>
      </trkpt>
      <trkpt lat="46.77336" lon="5.80853">
        <ele>636</ele>
        <time>2021-08-25T10:33:06Z</time>
      </trkpt>
      <trkpt lat="46.77333" lon="5.80846">
        <ele>636</ele>
        <time>2021-08-25T10:33:10Z</time>
      </trkpt>
      <trkpt lat="46.7733" lon="5.80841">
        <ele>636</ele>
        <time>2021-08-25T10:33:15Z</time>
      </trkpt>
      <trkpt lat="46.77317" lon="5.80817">
        <ele>636</ele>
        <time>2021-08-25T10:33:34Z</time>
      </trkpt>
      <trkpt lat="46.77313" lon="5.80812">
        <ele>635</ele>
        <time>2021-08-25T10:33:39Z</time>
      </trkpt>
      <trkpt lat="46.77304" lon="5.80806">
        <ele>635</ele>
        <time>2021-08-25T10:33:51Z</time>
      </trkpt>
      <trkpt lat="46.77299" lon="5.808">
        <ele>634</ele>
        <time>2021-08-25T10:33:56Z</time>
      </trkpt>
      <trkpt lat="46.77284" lon="5.80788">
        <ele>633</ele>
        <time>2021-08-25T10:34:13Z</time>
      </trkpt>
      <trkpt lat="46.77265" lon="5.80766">
        <ele>633</ele>
        <time>2021-08-25T10:34:32Z</time>
      </trkpt>
      <trkpt lat="46.77225" lon="5.80734">
        <ele>631</ele>
        <time>2021-08-25T10:35:13Z</time>
      </trkpt>
      <trkpt lat="46.77218" lon="5.80726">
        <ele>630</ele>
        <time>2021-08-25T10:35:18Z</time>
      </trkpt>
      <trkpt lat="46.77195" lon="5.80715">
        <ele>630</ele>
        <time>2021-08-25T10:35:40Z</time>
      </trkpt>
      <trkpt lat="46.77188" lon="5.80709">
        <ele>630</ele>
        <time>2021-08-25T10:35:47Z</time>
      </trkpt>
      <trkpt lat="46.77178" lon="5.80707">
        <ele>629</ele>
        <time>2021-08-25T10:35:56Z</time>
      </trkpt>
      <trkpt lat="46.77163" lon="5.80697">
        <ele>629</ele>
        <time>2021-08-25T10:36:08Z</time>
      </trkpt>
      <trkpt lat="46.77148" lon="5.8069">
        <ele>629</ele>
        <time>2021-08-25T10:36:20Z</time>
      </trkpt>
      <trkpt lat="46.77134" lon="5.80675">
        <ele>629</ele>
        <time>2021-08-25T10:36:34Z</time>
      </trkpt>
      <trkpt lat="46.77126" lon="5.80659">
        <ele>628</ele>
        <time>2021-08-25T10:36:47Z</time>
      </trkpt>
      <trkpt lat="46.77115" lon="5.80652">
        <ele>628</ele>
        <time>2021-08-25T10:36:57Z</time>
      </trkpt>
      <trkpt lat="46.77085" lon="5.80608">
        <ele>628</ele>
        <time>2021-08-25T10:37:34Z</time>
      </trkpt>
      <trkpt lat="46.77081" lon="5.80603">
        <ele>628</ele>
        <time>2021-08-25T10:37:40Z</time>
      </trkpt>
      <trkpt lat="46.77075" lon="5.80595">
        <ele>628</ele>
        <time>2021-08-25T10:37:46Z</time>
      </trkpt>
      <trkpt lat="46.77067" lon="5.80574">
        <ele>628</ele>
        <time>2021-08-25T10:37:58Z</time>
      </trkpt>
      <trkpt lat="46.77061" lon="5.80565">
        <ele>629</ele>
        <time>2021-08-25T10:38:04Z</time>
      </trkpt>
      <trkpt lat="46.77051" lon="5.80546">
        <ele>629</ele>
        <time>2021-08-25T10:38:18Z</time>
      </trkpt>
      <trkpt lat="46.77049" lon="5.80538">
        <ele>628</ele>
        <time>2021-08-25T10:38:23Z</time>
      </trkpt>
      <trkpt lat="46.77045" lon="5.80532">
        <ele>628</ele>
        <time>2021-08-25T10:38:29Z</time>
      </trkpt>
      <trkpt lat="46.77043" lon="5.80523">
        <ele>628</ele>
        <time>2021-08-25T10:38:35Z</time>
      </trkpt>
      <trkpt lat="46.7704" lon="5.80516">
        <ele>628</ele>
        <time>2021-08-25T10:38:39Z</time>
      </trkpt>
      <trkpt lat="46.77025" lon="5.80473">
        <ele>628</ele>
        <time>2021-08-25T10:39:04Z</time>
      </trkpt>
      <trkpt lat="46.77021" lon="5.80465">
        <ele>628</ele>
        <time>2021-08-25T10:39:09Z</time>
      </trkpt>
      <trkpt lat="46.77021" lon="5.80456">
        <ele>628</ele>
        <time>2021-08-25T10:39:14Z</time>
      </trkpt>
      <trkpt lat="46.77017" lon="5.80449">
        <ele>631</ele>
        <time>2021-08-25T10:39:34Z</time>
      </trkpt>
      <trkpt lat="46.77012" lon="5.80441">
        <ele>629</ele>
        <time>2021-08-25T10:40:11Z</time>
      </trkpt>
      <trkpt lat="46.76992" lon="5.80399">
        <ele>627</ele>
        <time>2021-08-25T10:40:44Z</time>
      </trkpt>
      <trkpt lat="46.76988" lon="5.8039">
        <ele>627</ele>
        <time>2021-08-25T10:40:49Z</time>
      </trkpt>
      <trkpt lat="46.76974" lon="5.80373">
        <ele>626</ele>
        <time>2021-08-25T10:41:07Z</time>
      </trkpt>
      <trkpt lat="46.76969" lon="5.80384">
        <ele>626</ele>
        <time>2021-08-25T10:41:21Z</time>
      </trkpt>
      <trkpt lat="46.76968" lon="5.80395">
        <ele>626</ele>
        <time>2021-08-25T10:41:29Z</time>
      </trkpt>
      <trkpt lat="46.76961" lon="5.80403">
        <ele>627</ele>
        <time>2021-08-25T10:41:43Z</time>
      </trkpt>
      <trkpt lat="46.76955" lon="5.80421">
        <ele>626</ele>
        <time>2021-08-25T10:41:52Z</time>
      </trkpt>
      <trkpt lat="46.76951" lon="5.80427">
        <ele>626</ele>
        <time>2021-08-25T10:41:56Z</time>
      </trkpt>
      <trkpt lat="46.76947" lon="5.80434">
        <ele>625</ele>
        <time>2021-08-25T10:42:00Z</time>
      </trkpt>
      <trkpt lat="46.76944" lon="5.80442">
        <ele>625</ele>
        <time>2021-08-25T10:42:04Z</time>
      </trkpt>
      <trkpt lat="46.76933" lon="5.80462">
        <ele>623</ele>
        <time>2021-08-25T10:42:20Z</time>
      </trkpt>
      <trkpt lat="46.76928" lon="5.80472">
        <ele>623</ele>
        <time>2021-08-25T10:42:28Z</time>
      </trkpt>
      <trkpt lat="46.7692" lon="5.80494">
        <ele>626</ele>
        <time>2021-08-25T10:42:45Z</time>
      </trkpt>
      <trkpt lat="46.76915" lon="5.80499">
        <ele>626</ele>
        <time>2021-08-25T10:42:49Z</time>
      </trkpt>
      <trkpt lat="46.769" lon="5.80528">
        <ele>628</ele>
        <time>2021-08-25T10:43:15Z</time>
      </trkpt>
      <trkpt lat="46.76874" lon="5.80511">
        <ele>626</ele>
        <time>2021-08-25T10:43:44Z</time>
      </trkpt>
      <trkpt lat="46.76861" lon="5.80492">
        <ele>624</ele>
        <time>2021-08-25T10:44:06Z</time>
      </trkpt>
      <trkpt lat="46.7685" lon="5.80484">
        <ele>624</ele>
        <time>2021-08-25T10:44:13Z</time>
      </trkpt>
      <trkpt lat="46.76843" lon="5.80483">
        <ele>624</ele>
        <time>2021-08-25T10:44:22Z</time>
      </trkpt>
      <trkpt lat="46.76837" lon="5.80483">
        <ele>623</ele>
        <time>2021-08-25T10:44:29Z</time>
      </trkpt>
      <trkpt lat="46.76821" lon="5.80469">
        <ele>621</ele>
        <time>2021-08-25T10:44:46Z</time>
      </trkpt>
      <trkpt lat="46.76815" lon="5.80463">
        <ele>621</ele>
        <time>2021-08-25T10:44:57Z</time>
      </trkpt>
      <trkpt lat="46.76813" lon="5.80459">
        <ele>621</ele>
        <time>2021-08-25T10:45:51Z</time>
      </trkpt>
      <trkpt lat="46.76808" lon="5.80458">
        <ele>618</ele>
        <time>2021-08-25T10:49:23Z</time>
      </trkpt>
      <trkpt lat="46.7681" lon="5.80466">
        <ele>619</ele>
        <time>2021-08-25T10:58:27Z</time>
      </trkpt>
      <trkpt lat="46.76816" lon="5.80449">
        <ele>622</ele>
        <time>2021-08-25T10:58:40Z</time>
      </trkpt>
      <trkpt lat="46.76816" lon="5.80441">
        <ele>622</ele>
        <time>2021-08-25T10:58:45Z</time>
      </trkpt>
      <trkpt lat="46.76804" lon="5.80409">
        <ele>625</ele>
        <time>2021-08-25T10:59:11Z</time>
      </trkpt>
      <trkpt lat="46.76794" lon="5.80367">
        <ele>629</ele>
        <time>2021-08-25T10:59:44Z</time>
      </trkpt>
      <trkpt lat="46.76791" lon="5.80356">
        <ele>629</ele>
        <time>2021-08-25T10:59:50Z</time>
      </trkpt>
      <trkpt lat="46.76787" lon="5.80347">
        <ele>629</ele>
        <time>2021-08-25T10:59:57Z</time>
      </trkpt>
      <trkpt lat="46.76777" lon="5.80334">
        <ele>629</ele>
        <time>2021-08-25T11:00:13Z</time>
      </trkpt>
      <trkpt lat="46.76771" lon="5.80329">
        <ele>629</ele>
        <time>2021-08-25T11:00:21Z</time>
      </trkpt>
      <trkpt lat="46.76772" lon="5.80313">
        <ele>628</ele>
        <time>2021-08-25T11:00:36Z</time>
      </trkpt>
      <trkpt lat="46.76779" lon="5.80304">
        <ele>627</ele>
        <time>2021-08-25T11:00:50Z</time>
      </trkpt>
      <trkpt lat="46.76785" lon="5.80297">
        <ele>627</ele>
        <time>2021-08-25T11:01:02Z</time>
      </trkpt>
      <trkpt lat="46.76788" lon="5.80279">
        <ele>626</ele>
        <time>2021-08-25T11:01:17Z</time>
      </trkpt>
      <trkpt lat="46.76793" lon="5.8027">
        <ele>627</ele>
        <time>2021-08-25T11:01:28Z</time>
      </trkpt>
      <trkpt lat="46.768" lon="5.80252">
        <ele>627</ele>
        <time>2021-08-25T11:01:46Z</time>
      </trkpt>
      <trkpt lat="46.76806" lon="5.80244">
        <ele>626</ele>
        <time>2021-08-25T11:01:52Z</time>
      </trkpt>
      <trkpt lat="46.76805" lon="5.80232">
        <ele>626</ele>
        <time>2021-08-25T11:01:58Z</time>
      </trkpt>
      <trkpt lat="46.76803" lon="5.80223">
        <ele>626</ele>
        <time>2021-08-25T11:02:06Z</time>
      </trkpt>
      <trkpt lat="46.76804" lon="5.80209">
        <ele>626</ele>
        <time>2021-08-25T11:02:15Z</time>
      </trkpt>
      <trkpt lat="46.76801" lon="5.80198">
        <ele>625</ele>
        <time>2021-08-25T11:02:22Z</time>
      </trkpt>
      <trkpt lat="46.76786" lon="5.80171">
        <ele>625</ele>
        <time>2021-08-25T11:02:37Z</time>
      </trkpt>
      <trkpt lat="46.76781" lon="5.80163">
        <ele>625</ele>
        <time>2021-08-25T11:02:45Z</time>
      </trkpt>
      <trkpt lat="46.76776" lon="5.80141">
        <ele>624</ele>
        <time>2021-08-25T11:02:54Z</time>
      </trkpt>
      <trkpt lat="46.76765" lon="5.80123">
        <ele>624</ele>
        <time>2021-08-25T11:03:05Z</time>
      </trkpt>
      <trkpt lat="46.76737" lon="5.80101">
        <ele>624</ele>
        <time>2021-08-25T11:03:34Z</time>
      </trkpt>
      <trkpt lat="46.76736" lon="5.8009">
        <ele>623</ele>
        <time>2021-08-25T11:03:46Z</time>
      </trkpt>
      <trkpt lat="46.76726" lon="5.80093">
        <ele>623</ele>
        <time>2021-08-25T11:03:59Z</time>
      </trkpt>
      <trkpt lat="46.76719" lon="5.80085">
        <ele>623</ele>
        <time>2021-08-25T11:04:10Z</time>
      </trkpt>
      <trkpt lat="46.76693" lon="5.80041">
        <ele>622</ele>
        <time>2021-08-25T11:04:42Z</time>
      </trkpt>
      <trkpt lat="46.76679" lon="5.80028">
        <ele>622</ele>
        <time>2021-08-25T11:04:53Z</time>
      </trkpt>
      <trkpt lat="46.76635" lon="5.8001">
        <ele>623</ele>
        <time>2021-08-25T11:05:28Z</time>
      </trkpt>
      <trkpt lat="46.76625" lon="5.79996">
        <ele>623</ele>
        <time>2021-08-25T11:05:39Z</time>
      </trkpt>
      <trkpt lat="46.76617" lon="5.79979">
        <ele>622</ele>
        <time>2021-08-25T11:05:48Z</time>
      </trkpt>
      <trkpt lat="46.76592" lon="5.79952">
        <ele>622</ele>
        <time>2021-08-25T11:06:14Z</time>
      </trkpt>
      <trkpt lat="46.76566" lon="5.79914">
        <ele>623</ele>
        <time>2021-08-25T11:06:45Z</time>
      </trkpt>
      <trkpt lat="46.76548" lon="5.79895">
        <ele>623</ele>
        <time>2021-08-25T11:07:06Z</time>
      </trkpt>
      <trkpt lat="46.76541" lon="5.79885">
        <ele>624</ele>
        <time>2021-08-25T11:07:13Z</time>
      </trkpt>
      <trkpt lat="46.76528" lon="5.79876">
        <ele>625</ele>
        <time>2021-08-25T11:07:31Z</time>
      </trkpt>
      <trkpt lat="46.76507" lon="5.79867">
        <ele>625</ele>
        <time>2021-08-25T11:07:48Z</time>
      </trkpt>
      <trkpt lat="46.7649" lon="5.79835">
        <ele>626</ele>
        <time>2021-08-25T11:08:05Z</time>
      </trkpt>
      <trkpt lat="46.76451" lon="5.79805">
        <ele>626</ele>
        <time>2021-08-25T11:08:37Z</time>
      </trkpt>
      <trkpt lat="46.76437" lon="5.79788">
        <ele>626</ele>
        <time>2021-08-25T11:08:51Z</time>
      </trkpt>
      <trkpt lat="46.76423" lon="5.79786">
        <ele>626</ele>
        <time>2021-08-25T11:09:06Z</time>
      </trkpt>
      <trkpt lat="46.76393" lon="5.79766">
        <ele>624</ele>
        <time>2021-08-25T11:09:32Z</time>
      </trkpt>
      <trkpt lat="46.76377" lon="5.79779">
        <ele>624</ele>
        <time>2021-08-25T11:09:43Z</time>
      </trkpt>
      <trkpt lat="46.76364" lon="5.79781">
        <ele>623</ele>
        <time>2021-08-25T11:09:56Z</time>
      </trkpt>
      <trkpt lat="46.76343" lon="5.79767">
        <ele>623</ele>
        <time>2021-08-25T11:10:13Z</time>
      </trkpt>
      <trkpt lat="46.76329" lon="5.79767">
        <ele>623</ele>
        <time>2021-08-25T11:10:24Z</time>
      </trkpt>
      <trkpt lat="46.76315" lon="5.79752">
        <ele>623</ele>
        <time>2021-08-25T11:10:34Z</time>
      </trkpt>
      <trkpt lat="46.76287" lon="5.79704">
        <ele>622</ele>
        <time>2021-08-25T11:11:05Z</time>
      </trkpt>
      <trkpt lat="46.76278" lon="5.7969">
        <ele>622</ele>
        <time>2021-08-25T11:11:15Z</time>
      </trkpt>
      <trkpt lat="46.76259" lon="5.79641">
        <ele>621</ele>
        <time>2021-08-25T11:11:48Z</time>
      </trkpt>
      <trkpt lat="46.76249" lon="5.79626">
        <ele>621</ele>
        <time>2021-08-25T11:12:00Z</time>
      </trkpt>
      <trkpt lat="46.76203" lon="5.79601">
        <ele>620</ele>
        <time>2021-08-25T11:12:40Z</time>
      </trkpt>
      <trkpt lat="46.76192" lon="5.79586">
        <ele>620</ele>
        <time>2021-08-25T11:12:52Z</time>
      </trkpt>
      <trkpt lat="46.76181" lon="5.79558">
        <ele>620</ele>
        <time>2021-08-25T11:13:16Z</time>
      </trkpt>
      <trkpt lat="46.76181" lon="5.79514">
        <ele>622</ele>
        <time>2021-08-25T11:13:42Z</time>
      </trkpt>
      <trkpt lat="46.76169" lon="5.79475">
        <ele>624</ele>
        <time>2021-08-25T11:14:07Z</time>
      </trkpt>
      <trkpt lat="46.76157" lon="5.79462">
        <ele>625</ele>
        <time>2021-08-25T11:14:24Z</time>
      </trkpt>
      <trkpt lat="46.76149" lon="5.79461">
        <ele>625</ele>
        <time>2021-08-25T11:14:30Z</time>
      </trkpt>
      <trkpt lat="46.7614" lon="5.79461">
        <ele>625</ele>
        <time>2021-08-25T11:14:37Z</time>
      </trkpt>
      <trkpt lat="46.76105" lon="5.79463">
        <ele>627</ele>
        <time>2021-08-25T11:15:12Z</time>
      </trkpt>
      <trkpt lat="46.76095" lon="5.79465">
        <ele>628</ele>
        <time>2021-08-25T11:15:25Z</time>
      </trkpt>
      <trkpt lat="46.76079" lon="5.79458">
        <ele>627</ele>
        <time>2021-08-25T11:15:35Z</time>
      </trkpt>
      <trkpt lat="46.76058" lon="5.79442">
        <ele>626</ele>
        <time>2021-08-25T11:15:53Z</time>
      </trkpt>
      <trkpt lat="46.7605" lon="5.79445">
        <ele>626</ele>
        <time>2021-08-25T11:16:00Z</time>
      </trkpt>
      <trkpt lat="46.76043" lon="5.79443">
        <ele>625</ele>
        <time>2021-08-25T11:16:07Z</time>
      </trkpt>
      <trkpt lat="46.7601" lon="5.79449">
        <ele>623</ele>
        <time>2021-08-25T11:16:37Z</time>
      </trkpt>
      <trkpt lat="46.75982" lon="5.79436">
        <ele>622</ele>
        <time>2021-08-25T11:16:57Z</time>
      </trkpt>
      <trkpt lat="46.75933" lon="5.79418">
        <ele>619</ele>
        <time>2021-08-25T11:17:41Z</time>
      </trkpt>
      <trkpt lat="46.75903" lon="5.79418">
        <ele>617</ele>
        <time>2021-08-25T11:18:02Z</time>
      </trkpt>
      <trkpt lat="46.7589" lon="5.79398">
        <ele>616</ele>
        <time>2021-08-25T11:18:30Z</time>
      </trkpt>
      <trkpt lat="46.75884" lon="5.79378">
        <ele>615</ele>
        <time>2021-08-25T11:18:40Z</time>
      </trkpt>
      <trkpt lat="46.75879" lon="5.7937">
        <ele>616</ele>
        <time>2021-08-25T11:18:45Z</time>
      </trkpt>
      <trkpt lat="46.75867" lon="5.79357">
        <ele>615</ele>
        <time>2021-08-25T11:19:01Z</time>
      </trkpt>
      <trkpt lat="46.75855" lon="5.79341">
        <ele>616</ele>
        <time>2021-08-25T11:19:13Z</time>
      </trkpt>
      <trkpt lat="46.75844" lon="5.79314">
        <ele>617</ele>
        <time>2021-08-25T11:19:29Z</time>
      </trkpt>
      <trkpt lat="46.75843" lon="5.79294">
        <ele>617</ele>
        <time>2021-08-25T11:19:39Z</time>
      </trkpt>
      <trkpt lat="46.7583" lon="5.79279">
        <ele>617</ele>
        <time>2021-08-25T11:19:51Z</time>
      </trkpt>
      <trkpt lat="46.7582" lon="5.79266">
        <ele>617</ele>
        <time>2021-08-25T11:20:01Z</time>
      </trkpt>
      <trkpt lat="46.75796" lon="5.79207">
        <ele>615</ele>
        <time>2021-08-25T11:20:39Z</time>
      </trkpt>
      <trkpt lat="46.75787" lon="5.79199">
        <ele>614</ele>
        <time>2021-08-25T11:20:47Z</time>
      </trkpt>
      <trkpt lat="46.75769" lon="5.79174">
        <ele>613</ele>
        <time>2021-08-25T11:21:08Z</time>
      </trkpt>
      <trkpt lat="46.75771" lon="5.79191">
        <ele>614</ele>
        <time>2021-08-25T11:21:25Z</time>
      </trkpt>
      <trkpt lat="46.75793" lon="5.7921">
        <ele>614</ele>
        <time>2021-08-25T11:21:49Z</time>
      </trkpt>
      <trkpt lat="46.7578" lon="5.79188">
        <ele>614</ele>
        <time>2021-08-25T11:22:45Z</time>
      </trkpt>
      <trkpt lat="46.75774" lon="5.79193">
        <ele>614</ele>
        <time>2021-08-25T11:23:30Z</time>
      </trkpt>
      <trkpt lat="46.75771" lon="5.79184">
        <ele>615</ele>
        <time>2021-08-25T11:24:56Z</time>
      </trkpt>
      <trkpt lat="46.75773" lon="5.79174">
        <ele>614</ele>
        <time>2021-08-25T11:26:43Z</time>
      </trkpt>
      <trkpt lat="46.75765" lon="5.79172">
        <ele>614</ele>
        <time>2021-08-25T11:27:01Z</time>
      </trkpt>
      <trkpt lat="46.75763" lon="5.79181">
        <ele>614</ele>
        <time>2021-08-25T11:27:15Z</time>
      </trkpt>
      <trkpt lat="46.75762" lon="5.79175">
        <ele>614</ele>
        <time>2021-08-25T11:28:15Z</time>
      </trkpt>
      <trkpt lat="46.75757" lon="5.79166">
        <ele>614</ele>
        <time>2021-08-25T11:28:51Z</time>
      </trkpt>
      <trkpt lat="46.75744" lon="5.79143">
        <ele>615</ele>
        <time>2021-08-25T11:29:12Z</time>
      </trkpt>
      <trkpt lat="46.75736" lon="5.79143">
        <ele>615</ele>
        <time>2021-08-25T11:29:19Z</time>
      </trkpt>
      <trkpt lat="46.75727" lon="5.79133">
        <ele>615</ele>
        <time>2021-08-25T11:29:31Z</time>
      </trkpt>
      <trkpt lat="46.75719" lon="5.79133">
        <ele>616</ele>
        <time>2021-08-25T11:29:36Z</time>
      </trkpt>
      <trkpt lat="46.75713" lon="5.79129">
        <ele>616</ele>
        <time>2021-08-25T11:29:43Z</time>
      </trkpt>
      <trkpt lat="46.75695" lon="5.79127">
        <ele>616</ele>
        <time>2021-08-25T11:29:58Z</time>
      </trkpt>
      <trkpt lat="46.75688" lon="5.79122">
        <ele>616</ele>
        <time>2021-08-25T11:30:06Z</time>
      </trkpt>
      <trkpt lat="46.7568" lon="5.79123">
        <ele>617</ele>
        <time>2021-08-25T11:30:15Z</time>
      </trkpt>
      <trkpt lat="46.75673" lon="5.79118">
        <ele>617</ele>
        <time>2021-08-25T11:30:22Z</time>
      </trkpt>
      <trkpt lat="46.75664" lon="5.79116">
        <ele>617</ele>
        <time>2021-08-25T11:30:32Z</time>
      </trkpt>
      <trkpt lat="46.75634" lon="5.79095">
        <ele>619</ele>
        <time>2021-08-25T11:31:00Z</time>
      </trkpt>
      <trkpt lat="46.75627" lon="5.79093">
        <ele>620</ele>
        <time>2021-08-25T11:31:05Z</time>
      </trkpt>
      <trkpt lat="46.75621" lon="5.79087">
        <ele>620</ele>
        <time>2021-08-25T11:31:11Z</time>
      </trkpt>
      <trkpt lat="46.75617" lon="5.79079">
        <ele>620</ele>
        <time>2021-08-25T11:31:15Z</time>
      </trkpt>
      <trkpt lat="46.75593" lon="5.79052">
        <ele>620</ele>
        <time>2021-08-25T11:31:46Z</time>
      </trkpt>
      <trkpt lat="46.75588" lon="5.79046">
        <ele>620</ele>
        <time>2021-08-25T11:31:54Z</time>
      </trkpt>
      <trkpt lat="46.75571" lon="5.79043">
        <ele>619</ele>
        <time>2021-08-25T11:32:10Z</time>
      </trkpt>
      <trkpt lat="46.75564" lon="5.79038">
        <ele>619</ele>
        <time>2021-08-25T11:32:15Z</time>
      </trkpt>
      <trkpt lat="46.75553" lon="5.79022">
        <ele>618</ele>
        <time>2021-08-25T11:32:27Z</time>
      </trkpt>
      <trkpt lat="46.75548" lon="5.79012">
        <ele>617</ele>
        <time>2021-08-25T11:32:33Z</time>
      </trkpt>
      <trkpt lat="46.75537" lon="5.78994">
        <ele>617</ele>
        <time>2021-08-25T11:32:45Z</time>
      </trkpt>
      <trkpt lat="46.75529" lon="5.78987">
        <ele>617</ele>
        <time>2021-08-25T11:32:51Z</time>
      </trkpt>
      <trkpt lat="46.75524" lon="5.78978">
        <ele>617</ele>
        <time>2021-08-25T11:32:58Z</time>
      </trkpt>
      <trkpt lat="46.75516" lon="5.78976">
        <ele>617</ele>
        <time>2021-08-25T11:33:06Z</time>
      </trkpt>
      <trkpt lat="46.75501" lon="5.78971">
        <ele>617</ele>
        <time>2021-08-25T11:33:26Z</time>
      </trkpt>
      <trkpt lat="46.75491" lon="5.78968">
        <ele>617</ele>
        <time>2021-08-25T11:33:37Z</time>
      </trkpt>
      <trkpt lat="46.75482" lon="5.78962">
        <ele>616</ele>
        <time>2021-08-25T11:33:51Z</time>
      </trkpt>
      <trkpt lat="46.75474" lon="5.78956">
        <ele>615</ele>
        <time>2021-08-25T11:33:58Z</time>
      </trkpt>
      <trkpt lat="46.75469" lon="5.78965">
        <ele>616</ele>
        <time>2021-08-25T11:34:23Z</time>
      </trkpt>
      <trkpt lat="46.75462" lon="5.78957">
        <ele>616</ele>
        <time>2021-08-25T11:34:37Z</time>
      </trkpt>
      <trkpt lat="46.75456" lon="5.78963">
        <ele>615</ele>
        <time>2021-08-25T11:34:52Z</time>
      </trkpt>
      <trkpt lat="46.7545" lon="5.78959">
        <ele>615</ele>
        <time>2021-08-25T11:35:23Z</time>
      </trkpt>
      <trkpt lat="46.75444" lon="5.78954">
        <ele>616</ele>
        <time>2021-08-25T11:35:28Z</time>
      </trkpt>
      <trkpt lat="46.7544" lon="5.78948">
        <ele>616</ele>
        <time>2021-08-25T11:35:32Z</time>
      </trkpt>
      <trkpt lat="46.75433" lon="5.78944">
        <ele>618</ele>
        <time>2021-08-25T11:35:52Z</time>
      </trkpt>
      <trkpt lat="46.75426" lon="5.78937">
        <ele>618</ele>
        <time>2021-08-25T11:35:59Z</time>
      </trkpt>
      <trkpt lat="46.75418" lon="5.78936">
        <ele>618</ele>
        <time>2021-08-25T11:36:09Z</time>
      </trkpt>
      <trkpt lat="46.75403" lon="5.78902">
        <ele>618</ele>
        <time>2021-08-25T11:36:31Z</time>
      </trkpt>
      <trkpt lat="46.75398" lon="5.78896">
        <ele>619</ele>
        <time>2021-08-25T11:36:37Z</time>
      </trkpt>
      <trkpt lat="46.75391" lon="5.7889">
        <ele>619</ele>
        <time>2021-08-25T11:36:44Z</time>
      </trkpt>
      <trkpt lat="46.75384" lon="5.78881">
        <ele>619</ele>
        <time>2021-08-25T11:36:54Z</time>
      </trkpt>
      <trkpt lat="46.75375" lon="5.78864">
        <ele>620</ele>
        <time>2021-08-25T11:37:12Z</time>
      </trkpt>
      <trkpt lat="46.75368" lon="5.78854">
        <ele>621</ele>
        <time>2021-08-25T11:37:21Z</time>
      </trkpt>
      <trkpt lat="46.75357" lon="5.7884">
        <ele>621</ele>
        <time>2021-08-25T11:37:32Z</time>
      </trkpt>
      <trkpt lat="46.75349" lon="5.78835">
        <ele>621</ele>
        <time>2021-08-25T11:37:42Z</time>
      </trkpt>
      <trkpt lat="46.75336" lon="5.78824">
        <ele>621</ele>
        <time>2021-08-25T11:37:55Z</time>
      </trkpt>
      <trkpt lat="46.75328" lon="5.78817">
        <ele>622</ele>
        <time>2021-08-25T11:38:03Z</time>
      </trkpt>
      <trkpt lat="46.75322" lon="5.78811">
        <ele>622</ele>
        <time>2021-08-25T11:38:14Z</time>
      </trkpt>
      <trkpt lat="46.75317" lon="5.78802">
        <ele>622</ele>
        <time>2021-08-25T11:38:27Z</time>
      </trkpt>
      <trkpt lat="46.75312" lon="5.78791">
        <ele>621</ele>
        <time>2021-08-25T11:38:35Z</time>
      </trkpt>
      <trkpt lat="46.75306" lon="5.78783">
        <ele>621</ele>
        <time>2021-08-25T11:38:42Z</time>
      </trkpt>
      <trkpt lat="46.75278" lon="5.78766">
        <ele>621</ele>
        <time>2021-08-25T11:39:08Z</time>
      </trkpt>
      <trkpt lat="46.75272" lon="5.78757">
        <ele>620</ele>
        <time>2021-08-25T11:39:13Z</time>
      </trkpt>
      <trkpt lat="46.7526" lon="5.78747">
        <ele>621</ele>
        <time>2021-08-25T11:39:28Z</time>
      </trkpt>
      <trkpt lat="46.7525" lon="5.78735">
        <ele>622</ele>
        <time>2021-08-25T11:39:40Z</time>
      </trkpt>
      <trkpt lat="46.75243" lon="5.78726">
        <ele>622</ele>
        <time>2021-08-25T11:39:45Z</time>
      </trkpt>
      <trkpt lat="46.75238" lon="5.78722">
        <ele>621</ele>
        <time>2021-08-25T11:39:53Z</time>
      </trkpt>
      <trkpt lat="46.7523" lon="5.78717">
        <ele>620</ele>
        <time>2021-08-25T11:40:01Z</time>
      </trkpt>
      <trkpt lat="46.75223" lon="5.7872">
        <ele>620</ele>
        <time>2021-08-25T11:40:09Z</time>
      </trkpt>
      <trkpt lat="46.75215" lon="5.7871">
        <ele>619</ele>
        <time>2021-08-25T11:40:21Z</time>
      </trkpt>
      <trkpt lat="46.75211" lon="5.78699">
        <ele>619</ele>
        <time>2021-08-25T11:40:29Z</time>
      </trkpt>
      <trkpt lat="46.75201" lon="5.78681">
        <ele>619</ele>
        <time>2021-08-25T11:40:40Z</time>
      </trkpt>
      <trkpt lat="46.75194" lon="5.78675">
        <ele>619</ele>
        <time>2021-08-25T11:40:45Z</time>
      </trkpt>
      <trkpt lat="46.75179" lon="5.78669">
        <ele>618</ele>
        <time>2021-08-25T11:40:58Z</time>
      </trkpt>
      <trkpt lat="46.75168" lon="5.78668">
        <ele>618</ele>
        <time>2021-08-25T11:41:12Z</time>
      </trkpt>
      <trkpt lat="46.75149" lon="5.78658">
        <ele>617</ele>
        <time>2021-08-25T11:41:36Z</time>
      </trkpt>
      <trkpt lat="46.75143" lon="5.7865">
        <ele>618</ele>
        <time>2021-08-25T11:41:43Z</time>
      </trkpt>
      <trkpt lat="46.75135" lon="5.78647">
        <ele>619</ele>
        <time>2021-08-25T11:41:49Z</time>
      </trkpt>
      <trkpt lat="46.75127" lon="5.78647">
        <ele>619</ele>
        <time>2021-08-25T11:41:56Z</time>
      </trkpt>
      <trkpt lat="46.75121" lon="5.78635">
        <ele>619</ele>
        <time>2021-08-25T11:42:10Z</time>
      </trkpt>
      <trkpt lat="46.75113" lon="5.78628">
        <ele>620</ele>
        <time>2021-08-25T11:42:28Z</time>
      </trkpt>
      <trkpt lat="46.75106" lon="5.78632">
        <ele>619</ele>
        <time>2021-08-25T11:42:41Z</time>
      </trkpt>
      <trkpt lat="46.75098" lon="5.78634">
        <ele>619</ele>
        <time>2021-08-25T11:42:49Z</time>
      </trkpt>
      <trkpt lat="46.75093" lon="5.78623">
        <ele>619</ele>
        <time>2021-08-25T11:43:04Z</time>
      </trkpt>
      <trkpt lat="46.75083" lon="5.78624">
        <ele>618</ele>
        <time>2021-08-25T11:43:18Z</time>
      </trkpt>
      <trkpt lat="46.75078" lon="5.78616">
        <ele>619</ele>
        <time>2021-08-25T11:43:30Z</time>
      </trkpt>
      <trkpt lat="46.75069" lon="5.7861">
        <ele>618</ele>
        <time>2021-08-25T11:43:38Z</time>
      </trkpt>
      <trkpt lat="46.75068" lon="5.78599">
        <ele>618</ele>
        <time>2021-08-25T11:43:43Z</time>
      </trkpt>
      <trkpt lat="46.75063" lon="5.78593">
        <ele>617</ele>
        <time>2021-08-25T11:43:50Z</time>
      </trkpt>
      <trkpt lat="46.75034" lon="5.78574">
        <ele>614</ele>
        <time>2021-08-25T11:44:16Z</time>
      </trkpt>
      <trkpt lat="46.75028" lon="5.78567">
        <ele>614</ele>
        <time>2021-08-25T11:44:21Z</time>
      </trkpt>
      <trkpt lat="46.75022" lon="5.78562">
        <ele>613</ele>
        <time>2021-08-25T11:44:27Z</time>
      </trkpt>
      <trkpt lat="46.7501" lon="5.78554">
        <ele>612</ele>
        <time>2021-08-25T11:44:43Z</time>
      </trkpt>
      <trkpt lat="46.74999" lon="5.78553">
        <ele>611</ele>
        <time>2021-08-25T11:44:56Z</time>
      </trkpt>
      <trkpt lat="46.74992" lon="5.78551">
        <ele>611</ele>
        <time>2021-08-25T11:45:12Z</time>
      </trkpt>
      <trkpt lat="46.74983" lon="5.78552">
        <ele>609</ele>
        <time>2021-08-25T11:45:24Z</time>
      </trkpt>
      <trkpt lat="46.74969" lon="5.78562">
        <ele>607</ele>
        <time>2021-08-25T11:45:41Z</time>
      </trkpt>
      <trkpt lat="46.74963" lon="5.78569">
        <ele>606</ele>
        <time>2021-08-25T11:45:46Z</time>
      </trkpt>
      <trkpt lat="46.74933" lon="5.78596">
        <ele>603</ele>
        <time>2021-08-25T11:46:18Z</time>
      </trkpt>
      <trkpt lat="46.74926" lon="5.786">
        <ele>602</ele>
        <time>2021-08-25T11:46:26Z</time>
      </trkpt>
      <trkpt lat="46.74919" lon="5.78599">
        <ele>602</ele>
        <time>2021-08-25T11:46:34Z</time>
      </trkpt>
      <trkpt lat="46.74914" lon="5.7859">
        <ele>602</ele>
        <time>2021-08-25T11:46:55Z</time>
      </trkpt>
      <trkpt lat="46.74904" lon="5.7858">
        <ele>602</ele>
        <time>2021-08-25T11:47:10Z</time>
      </trkpt>
      <trkpt lat="46.74896" lon="5.78574">
        <ele>602</ele>
        <time>2021-08-25T11:47:18Z</time>
      </trkpt>
      <trkpt lat="46.74881" lon="5.78571">
        <ele>602</ele>
        <time>2021-08-25T11:47:30Z</time>
      </trkpt>
      <trkpt lat="46.74873" lon="5.78564">
        <ele>602</ele>
        <time>2021-08-25T11:47:37Z</time>
      </trkpt>
      <trkpt lat="46.74866" lon="5.78556">
        <ele>602</ele>
        <time>2021-08-25T11:47:42Z</time>
      </trkpt>
      <trkpt lat="46.74834" lon="5.78545">
        <ele>601</ele>
        <time>2021-08-25T11:48:12Z</time>
      </trkpt>
      <trkpt lat="46.74826" lon="5.78546">
        <ele>601</ele>
        <time>2021-08-25T11:48:19Z</time>
      </trkpt>
      <trkpt lat="46.74794" lon="5.78519">
        <ele>601</ele>
        <time>2021-08-25T11:48:53Z</time>
      </trkpt>
      <trkpt lat="46.7476" lon="5.78495">
        <ele>600</ele>
        <time>2021-08-25T11:49:21Z</time>
      </trkpt>
      <trkpt lat="46.74748" lon="5.78491">
        <ele>599</ele>
        <time>2021-08-25T11:49:33Z</time>
      </trkpt>
      <trkpt lat="46.74739" lon="5.78482">
        <ele>599</ele>
        <time>2021-08-25T11:49:42Z</time>
      </trkpt>
      <trkpt lat="46.74722" lon="5.78479">
        <ele>599</ele>
        <time>2021-08-25T11:49:58Z</time>
      </trkpt>
      <trkpt lat="46.74703" lon="5.78461">
        <ele>600</ele>
        <time>2021-08-25T11:50:20Z</time>
      </trkpt>
      <trkpt lat="46.74689" lon="5.7845">
        <ele>600</ele>
        <time>2021-08-25T11:50:32Z</time>
      </trkpt>
      <trkpt lat="46.74642" lon="5.78431">
        <ele>598</ele>
        <time>2021-08-25T11:51:09Z</time>
      </trkpt>
      <trkpt lat="46.74628" lon="5.78426">
        <ele>598</ele>
        <time>2021-08-25T11:51:23Z</time>
      </trkpt>
      <trkpt lat="46.74621" lon="5.7842">
        <ele>598</ele>
        <time>2021-08-25T11:51:28Z</time>
      </trkpt>
      <trkpt lat="46.74598" lon="5.78413">
        <ele>598</ele>
        <time>2021-08-25T11:51:47Z</time>
      </trkpt>
      <trkpt lat="46.74591" lon="5.78405">
        <ele>597</ele>
        <time>2021-08-25T11:51:53Z</time>
      </trkpt>
      <trkpt lat="46.74577" lon="5.78395">
        <ele>597</ele>
        <time>2021-08-25T11:52:05Z</time>
      </trkpt>
      <trkpt lat="46.74567" lon="5.78391">
        <ele>597</ele>
        <time>2021-08-25T11:52:13Z</time>
      </trkpt>
      <trkpt lat="46.7456" lon="5.78386">
        <ele>597</ele>
        <time>2021-08-25T11:52:19Z</time>
      </trkpt>
      <trkpt lat="46.74546" lon="5.78377">
        <ele>598</ele>
        <time>2021-08-25T11:52:35Z</time>
      </trkpt>
      <trkpt lat="46.74511" lon="5.7833">
        <ele>600</ele>
        <time>2021-08-25T11:53:10Z</time>
      </trkpt>
      <trkpt lat="46.74501" lon="5.78319">
        <ele>600</ele>
        <time>2021-08-25T11:53:23Z</time>
      </trkpt>
      <trkpt lat="46.74496" lon="5.78311">
        <ele>599</ele>
        <time>2021-08-25T11:53:29Z</time>
      </trkpt>
      <trkpt lat="46.7449" lon="5.78305">
        <ele>600</ele>
        <time>2021-08-25T11:53:36Z</time>
      </trkpt>
      <trkpt lat="46.7448" lon="5.78299">
        <ele>600</ele>
        <time>2021-08-25T11:53:47Z</time>
      </trkpt>
      <trkpt lat="46.74474" lon="5.78291">
        <ele>600</ele>
        <time>2021-08-25T11:53:54Z</time>
      </trkpt>
      <trkpt lat="46.74468" lon="5.78282">
        <ele>600</ele>
        <time>2021-08-25T11:54:05Z</time>
      </trkpt>
      <trkpt lat="46.7445" lon="5.78267">
        <ele>600</ele>
        <time>2021-08-25T11:54:32Z</time>
      </trkpt>
      <trkpt lat="46.74441" lon="5.78263">
        <ele>601</ele>
        <time>2021-08-25T11:55:14Z</time>
      </trkpt>
      <trkpt lat="46.74431" lon="5.78263">
        <ele>601</ele>
        <time>2021-08-25T11:55:47Z</time>
      </trkpt>
      <trkpt lat="46.74427" lon="5.78256">
        <ele>600</ele>
        <time>2021-08-25T11:56:07Z</time>
      </trkpt>
      <trkpt lat="46.74426" lon="5.78265">
        <ele>600</ele>
        <time>2021-08-25T11:57:42Z</time>
      </trkpt>
      <trkpt lat="46.74417" lon="5.78255">
        <ele>600</ele>
        <time>2021-08-25T11:59:35Z</time>
      </trkpt>
      <trkpt lat="46.74405" lon="5.78238">
        <ele>600</ele>
        <time>2021-08-25T11:59:49Z</time>
      </trkpt>
      <trkpt lat="46.74388" lon="5.78221">
        <ele>601</ele>
        <time>2021-08-25T12:00:02Z</time>
      </trkpt>
      <trkpt lat="46.74371" lon="5.78196">
        <ele>601</ele>
        <time>2021-08-25T12:00:21Z</time>
      </trkpt>
      <trkpt lat="46.74366" lon="5.7819">
        <ele>602</ele>
        <time>2021-08-25T12:00:27Z</time>
      </trkpt>
      <trkpt lat="46.7436" lon="5.78181">
        <ele>602</ele>
        <time>2021-08-25T12:00:33Z</time>
      </trkpt>
      <trkpt lat="46.74354" lon="5.78174">
        <ele>602</ele>
        <time>2021-08-25T12:00:40Z</time>
      </trkpt>
      <trkpt lat="46.74348" lon="5.78157">
        <ele>601</ele>
        <time>2021-08-25T12:00:56Z</time>
      </trkpt>
      <trkpt lat="46.74343" lon="5.78148">
        <ele>602</ele>
        <time>2021-08-25T12:01:00Z</time>
      </trkpt>
      <trkpt lat="46.7434" lon="5.78139">
        <ele>601</ele>
        <time>2021-08-25T12:01:04Z</time>
      </trkpt>
      <trkpt lat="46.74332" lon="5.78126">
        <ele>602</ele>
        <time>2021-08-25T12:01:13Z</time>
      </trkpt>
      <trkpt lat="46.74322" lon="5.78108">
        <ele>604</ele>
        <time>2021-08-25T12:01:27Z</time>
      </trkpt>
      <trkpt lat="46.74314" lon="5.78104">
        <ele>605</ele>
        <time>2021-08-25T12:01:35Z</time>
      </trkpt>
      <trkpt lat="46.74304" lon="5.78093">
        <ele>606</ele>
        <time>2021-08-25T12:01:48Z</time>
      </trkpt>
      <trkpt lat="46.74289" lon="5.78083">
        <ele>607</ele>
        <time>2021-08-25T12:02:02Z</time>
      </trkpt>
      <trkpt lat="46.74284" lon="5.78076">
        <ele>607</ele>
        <time>2021-08-25T12:02:07Z</time>
      </trkpt>
      <trkpt lat="46.7428" lon="5.78067">
        <ele>608</ele>
        <time>2021-08-25T12:02:13Z</time>
      </trkpt>
      <trkpt lat="46.74273" lon="5.78061">
        <ele>608</ele>
        <time>2021-08-25T12:02:20Z</time>
      </trkpt>
      <trkpt lat="46.74261" lon="5.78048">
        <ele>610</ele>
        <time>2021-08-25T12:02:35Z</time>
      </trkpt>
      <trkpt lat="46.74249" lon="5.78042">
        <ele>611</ele>
        <time>2021-08-25T12:02:48Z</time>
      </trkpt>
      <trkpt lat="46.74243" lon="5.78034">
        <ele>611</ele>
        <time>2021-08-25T12:02:56Z</time>
      </trkpt>
      <trkpt lat="46.74215" lon="5.77979">
        <ele>614</ele>
        <time>2021-08-25T12:03:34Z</time>
      </trkpt>
      <trkpt lat="46.74203" lon="5.77965">
        <ele>614</ele>
        <time>2021-08-25T12:03:44Z</time>
      </trkpt>
      <trkpt lat="46.74197" lon="5.77946">
        <ele>615</ele>
        <time>2021-08-25T12:03:55Z</time>
      </trkpt>
      <trkpt lat="46.74171" lon="5.77906">
        <ele>618</ele>
        <time>2021-08-25T12:04:27Z</time>
      </trkpt>
      <trkpt lat="46.74159" lon="5.77891">
        <ele>618</ele>
        <time>2021-08-25T12:04:38Z</time>
      </trkpt>
      <trkpt lat="46.74144" lon="5.77863">
        <ele>620</ele>
        <time>2021-08-25T12:04:58Z</time>
      </trkpt>
      <trkpt lat="46.74141" lon="5.77851">
        <ele>621</ele>
        <time>2021-08-25T12:05:06Z</time>
      </trkpt>
      <trkpt lat="46.74119" lon="5.77806">
        <ele>625</ele>
        <time>2021-08-25T12:05:41Z</time>
      </trkpt>
      <trkpt lat="46.74116" lon="5.77795">
        <ele>625</ele>
        <time>2021-08-25T12:05:48Z</time>
      </trkpt>
      <trkpt lat="46.7411" lon="5.7775">
        <ele>628</ele>
        <time>2021-08-25T12:06:15Z</time>
      </trkpt>
      <trkpt lat="46.74115" lon="5.77733">
        <ele>629</ele>
        <time>2021-08-25T12:06:49Z</time>
      </trkpt>
      <trkpt lat="46.74125" lon="5.77701">
        <ele>632</ele>
        <time>2021-08-25T12:07:19Z</time>
      </trkpt>
      <trkpt lat="46.74128" lon="5.77691">
        <ele>633</ele>
        <time>2021-08-25T12:07:27Z</time>
      </trkpt>
      <trkpt lat="46.7414" lon="5.77674">
        <ele>634</ele>
        <time>2021-08-25T12:07:43Z</time>
      </trkpt>
      <trkpt lat="46.74155" lon="5.77659">
        <ele>634</ele>
        <time>2021-08-25T12:08:09Z</time>
      </trkpt>
      <trkpt lat="46.74166" lon="5.77649">
        <ele>633</ele>
        <time>2021-08-25T12:08:28Z</time>
      </trkpt>
      <trkpt lat="46.74184" lon="5.77651">
        <ele>630</ele>
        <time>2021-08-25T12:08:58Z</time>
      </trkpt>
      <trkpt lat="46.74196" lon="5.77652">
        <ele>630</ele>
        <time>2021-08-25T12:09:15Z</time>
      </trkpt>
      <trkpt lat="46.74201" lon="5.77664">
        <ele>629</ele>
        <time>2021-08-25T12:09:22Z</time>
      </trkpt>
      <trkpt lat="46.74208" lon="5.77668">
        <ele>629</ele>
        <time>2021-08-25T12:09:43Z</time>
      </trkpt>
      <trkpt lat="46.74218" lon="5.77665">
        <ele>629</ele>
        <time>2021-08-25T12:09:56Z</time>
      </trkpt>
      <trkpt lat="46.74219" lon="5.7765">
        <ele>627</ele>
        <time>2021-08-25T12:10:28Z</time>
      </trkpt>
      <trkpt lat="46.74231" lon="5.77632">
        <ele>625</ele>
        <time>2021-08-25T12:10:49Z</time>
      </trkpt>
      <trkpt lat="46.7424" lon="5.7762">
        <ele>624</ele>
        <time>2021-08-25T12:11:02Z</time>
      </trkpt>
      <trkpt lat="46.74256" lon="5.77571">
        <ele>619</ele>
        <time>2021-08-25T12:11:42Z</time>
      </trkpt>
      <trkpt lat="46.7426" lon="5.77561">
        <ele>618</ele>
        <time>2021-08-25T12:11:49Z</time>
      </trkpt>
      <trkpt lat="46.74214" lon="5.77514">
        <ele>616</ele>
        <time>2021-08-25T12:22:35Z</time>
      </trkpt>
      <trkpt lat="46.74209" lon="5.77527">
        <ele>616</ele>
        <time>2021-08-25T12:23:15Z</time>
      </trkpt>
      <trkpt lat="46.74209" lon="5.77542">
        <ele>618</ele>
        <time>2021-08-25T12:24:28Z</time>
      </trkpt>
      <trkpt lat="46.74217" lon="5.77544">
        <ele>618</ele>
        <time>2021-08-25T12:24:53Z</time>
      </trkpt>
      <trkpt lat="46.74223" lon="5.77548">
        <ele>617</ele>
        <time>2021-08-25T12:25:23Z</time>
      </trkpt>
      <trkpt lat="46.74233" lon="5.7756">
        <ele>617</ele>
        <time>2021-08-25T12:25:36Z</time>
      </trkpt>
      <trkpt lat="46.74239" lon="5.77566">
        <ele>617</ele>
        <time>2021-08-25T12:25:41Z</time>
      </trkpt>
      <trkpt lat="46.74252" lon="5.77565">
        <ele>618</ele>
        <time>2021-08-25T12:25:52Z</time>
      </trkpt>
      <trkpt lat="46.74257" lon="5.7756">
        <ele>618</ele>
        <time>2021-08-25T12:25:58Z</time>
      </trkpt>
      <trkpt lat="46.74264" lon="5.77555">
        <ele>618</ele>
        <time>2021-08-25T12:26:05Z</time>
      </trkpt>
      <trkpt lat="46.74269" lon="5.77575">
        <ele>619</ele>
        <time>2021-08-25T12:26:26Z</time>
      </trkpt>
      <trkpt lat="46.74269" lon="5.77593">
        <ele>620</ele>
        <time>2021-08-25T12:26:39Z</time>
      </trkpt>
      <trkpt lat="46.74265" lon="5.77612">
        <ele>620</ele>
        <time>2021-08-25T12:26:54Z</time>
      </trkpt>
      <trkpt lat="46.74251" lon="5.77647">
        <ele>624</ele>
        <time>2021-08-25T12:27:24Z</time>
      </trkpt>
      <trkpt lat="46.74243" lon="5.77664">
        <ele>626</ele>
        <time>2021-08-25T12:27:46Z</time>
      </trkpt>
      <trkpt lat="46.74236" lon="5.7767">
        <ele>627</ele>
        <time>2021-08-25T12:27:52Z</time>
      </trkpt>
      <trkpt lat="46.74228" lon="5.77675">
        <ele>629</ele>
        <time>2021-08-25T12:28:02Z</time>
      </trkpt>
      <trkpt lat="46.74212" lon="5.77671">
        <ele>631</ele>
        <time>2021-08-25T12:28:22Z</time>
      </trkpt>
      <trkpt lat="46.74198" lon="5.77667">
        <ele>633</ele>
        <time>2021-08-25T12:28:37Z</time>
      </trkpt>
      <trkpt lat="46.7419" lon="5.77668">
        <ele>633</ele>
        <time>2021-08-25T12:28:45Z</time>
      </trkpt>
      <trkpt lat="46.7418" lon="5.77668">
        <ele>635</ele>
        <time>2021-08-25T12:28:58Z</time>
      </trkpt>
      <trkpt lat="46.74175" lon="5.77677">
        <ele>636</ele>
        <time>2021-08-25T12:29:05Z</time>
      </trkpt>
      <trkpt lat="46.74162" lon="5.7769">
        <ele>636</ele>
        <time>2021-08-25T12:29:18Z</time>
      </trkpt>
      <trkpt lat="46.74148" lon="5.77714">
        <ele>635</ele>
        <time>2021-08-25T12:29:40Z</time>
      </trkpt>
      <trkpt lat="46.74123" lon="5.77742">
        <ele>632</ele>
        <time>2021-08-25T12:30:13Z</time>
      </trkpt>
      <trkpt lat="46.74109" lon="5.77748">
        <ele>632</ele>
        <time>2021-08-25T12:30:24Z</time>
      </trkpt>
      <trkpt lat="46.74094" lon="5.77741">
        <ele>632</ele>
        <time>2021-08-25T12:30:36Z</time>
      </trkpt>
      <trkpt lat="46.74089" lon="5.77739">
        <ele>632</ele>
        <time>2021-08-25T12:30:41Z</time>
      </trkpt>
      <trkpt lat="46.74081" lon="5.77735">
        <ele>632</ele>
        <time>2021-08-25T12:30:55Z</time>
      </trkpt>
      <trkpt lat="46.74073" lon="5.77734">
        <ele>631</ele>
        <time>2021-08-25T12:31:03Z</time>
      </trkpt>
      <trkpt lat="46.74063" lon="5.77737">
        <ele>629</ele>
        <time>2021-08-25T12:31:13Z</time>
      </trkpt>
      <trkpt lat="46.74054" lon="5.77735">
        <ele>629</ele>
        <time>2021-08-25T12:31:18Z</time>
      </trkpt>
      <trkpt lat="46.74048" lon="5.77737">
        <ele>628</ele>
        <time>2021-08-25T12:31:26Z</time>
      </trkpt>
      <trkpt lat="46.74026" lon="5.77754">
        <ele>625</ele>
        <time>2021-08-25T12:31:48Z</time>
      </trkpt>
      <trkpt lat="46.7399" lon="5.77766">
        <ele>622</ele>
        <time>2021-08-25T12:32:16Z</time>
      </trkpt>
      <trkpt lat="46.73952" lon="5.77785">
        <ele>615</ele>
        <time>2021-08-25T12:32:51Z</time>
      </trkpt>
      <trkpt lat="46.73947" lon="5.77785">
        <ele>615</ele>
        <time>2021-08-25T12:32:54Z</time>
      </trkpt>
      <trkpt lat="46.7394" lon="5.77787">
        <ele>614</ele>
        <time>2021-08-25T12:32:59Z</time>
      </trkpt>
      <trkpt lat="46.73931" lon="5.77784">
        <ele>613</ele>
        <time>2021-08-25T12:33:43Z</time>
      </trkpt>
      <trkpt lat="46.73926" lon="5.77789">
        <ele>612</ele>
        <time>2021-08-25T12:33:55Z</time>
      </trkpt>
      <trkpt lat="46.73916" lon="5.77798">
        <ele>610</ele>
        <time>2021-08-25T12:34:08Z</time>
      </trkpt>
      <trkpt lat="46.73889" lon="5.77802">
        <ele>607</ele>
        <time>2021-08-25T12:34:39Z</time>
      </trkpt>
      <trkpt lat="46.73877" lon="5.77803">
        <ele>606</ele>
        <time>2021-08-25T12:34:49Z</time>
      </trkpt>
      <trkpt lat="46.73872" lon="5.77801">
        <ele>606</ele>
        <time>2021-08-25T12:34:54Z</time>
      </trkpt>
      <trkpt lat="46.73866" lon="5.77803">
        <ele>605</ele>
        <time>2021-08-25T12:34:59Z</time>
      </trkpt>
      <trkpt lat="46.73854" lon="5.77804">
        <ele>604</ele>
        <time>2021-08-25T12:35:09Z</time>
      </trkpt>
      <trkpt lat="46.73836" lon="5.77808">
        <ele>603</ele>
        <time>2021-08-25T12:35:23Z</time>
      </trkpt>
      <trkpt lat="46.73824" lon="5.77806">
        <ele>601</ele>
        <time>2021-08-25T12:35:33Z</time>
      </trkpt>
      <trkpt lat="46.73801" lon="5.77808">
        <ele>600</ele>
        <time>2021-08-25T12:35:54Z</time>
      </trkpt>
      <trkpt lat="46.7379" lon="5.77805">
        <ele>599</ele>
        <time>2021-08-25T12:36:03Z</time>
      </trkpt>
      <trkpt lat="46.73758" lon="5.7781">
        <ele>595</ele>
        <time>2021-08-25T12:36:35Z</time>
      </trkpt>
      <trkpt lat="46.7375" lon="5.77815">
        <ele>594</ele>
        <time>2021-08-25T12:36:46Z</time>
      </trkpt>
      <trkpt lat="46.7374" lon="5.77815">
        <ele>593</ele>
        <time>2021-08-25T12:36:56Z</time>
      </trkpt>
      <trkpt lat="46.73717" lon="5.77819">
        <ele>592</ele>
        <time>2021-08-25T12:37:22Z</time>
      </trkpt>
      <trkpt lat="46.73708" lon="5.77817">
        <ele>591</ele>
        <time>2021-08-25T12:37:29Z</time>
      </trkpt>
      <trkpt lat="46.7368" lon="5.77821">
        <ele>589</ele>
        <time>2021-08-25T12:37:53Z</time>
      </trkpt>
      <trkpt lat="46.73675" lon="5.77819">
        <ele>588</ele>
        <time>2021-08-25T12:37:57Z</time>
      </trkpt>
      <trkpt lat="46.73669" lon="5.7782">
        <ele>587</ele>
        <time>2021-08-25T12:38:03Z</time>
      </trkpt>
      <trkpt lat="46.73656" lon="5.77825">
        <ele>585</ele>
        <time>2021-08-25T12:38:16Z</time>
      </trkpt>
      <trkpt lat="46.73638" lon="5.77823">
        <ele>583</ele>
        <time>2021-08-25T12:38:35Z</time>
      </trkpt>
      <trkpt lat="46.73603" lon="5.77828">
        <ele>577</ele>
        <time>2021-08-25T12:39:19Z</time>
      </trkpt>
      <trkpt lat="46.73593" lon="5.77831">
        <ele>575</ele>
        <time>2021-08-25T12:39:31Z</time>
      </trkpt>
      <trkpt lat="46.7357" lon="5.77835">
        <ele>572</ele>
        <time>2021-08-25T12:39:58Z</time>
      </trkpt>
      <trkpt lat="46.73566" lon="5.77831">
        <ele>571</ele>
        <time>2021-08-25T12:40:04Z</time>
      </trkpt>
      <trkpt lat="46.7355" lon="5.7783">
        <ele>569</ele>
        <time>2021-08-25T12:40:24Z</time>
      </trkpt>
      <trkpt lat="46.73544" lon="5.77831">
        <ele>568</ele>
        <time>2021-08-25T12:40:30Z</time>
      </trkpt>
      <trkpt lat="46.73514" lon="5.77836">
        <ele>562</ele>
        <time>2021-08-25T12:41:09Z</time>
      </trkpt>
      <trkpt lat="46.73482" lon="5.77841">
        <ele>558</ele>
        <time>2021-08-25T12:41:41Z</time>
      </trkpt>
      <trkpt lat="46.73476" lon="5.77845">
        <ele>556</ele>
        <time>2021-08-25T12:41:49Z</time>
      </trkpt>
      <trkpt lat="46.73469" lon="5.77845">
        <ele>556</ele>
        <time>2021-08-25T12:41:55Z</time>
      </trkpt>
      <trkpt lat="46.73452" lon="5.77842">
        <ele>553</ele>
        <time>2021-08-25T12:42:17Z</time>
      </trkpt>
      <trkpt lat="46.73443" lon="5.7784">
        <ele>551</ele>
        <time>2021-08-25T12:42:35Z</time>
      </trkpt>
      <trkpt lat="46.73437" lon="5.7784">
        <ele>551</ele>
        <time>2021-08-25T12:42:42Z</time>
      </trkpt>
      <trkpt lat="46.73425" lon="5.77844">
        <ele>549</ele>
        <time>2021-08-25T12:42:57Z</time>
      </trkpt>
      <trkpt lat="46.73412" lon="5.77843">
        <ele>548</ele>
        <time>2021-08-25T12:43:08Z</time>
      </trkpt>
      <trkpt lat="46.73404" lon="5.7785">
        <ele>547</ele>
        <time>2021-08-25T12:43:18Z</time>
      </trkpt>
      <trkpt lat="46.73398" lon="5.77851">
        <ele>547</ele>
        <time>2021-08-25T12:43:23Z</time>
      </trkpt>
      <trkpt lat="46.73385" lon="5.7785">
        <ele>545</ele>
        <time>2021-08-25T12:43:40Z</time>
      </trkpt>
      <trkpt lat="46.73377" lon="5.77853">
        <ele>544</ele>
        <time>2021-08-25T12:43:51Z</time>
      </trkpt>
      <trkpt lat="46.73365" lon="5.77852">
        <ele>543</ele>
        <time>2021-08-25T12:44:03Z</time>
      </trkpt>
      <trkpt lat="46.7336" lon="5.77854">
        <ele>543</ele>
        <time>2021-08-25T12:44:08Z</time>
      </trkpt>
      <trkpt lat="46.73324" lon="5.77858">
        <ele>537</ele>
        <time>2021-08-25T12:44:48Z</time>
      </trkpt>
      <trkpt lat="46.7329" lon="5.77853">
        <ele>535</ele>
        <time>2021-08-25T12:45:14Z</time>
      </trkpt>
      <trkpt lat="46.73284" lon="5.77855">
        <ele>534</ele>
        <time>2021-08-25T12:45:20Z</time>
      </trkpt>
      <trkpt lat="46.7328" lon="5.77859">
        <ele>533</ele>
        <time>2021-08-25T12:45:26Z</time>
      </trkpt>
      <trkpt lat="46.73271" lon="5.77856">
        <ele>532</ele>
        <time>2021-08-25T12:45:57Z</time>
      </trkpt>
      <trkpt lat="46.73265" lon="5.77854">
        <ele>531</ele>
        <time>2021-08-25T12:46:09Z</time>
      </trkpt>
      <trkpt lat="46.73252" lon="5.77858">
        <ele>529</ele>
        <time>2021-08-25T12:46:21Z</time>
      </trkpt>
      <trkpt lat="46.73246" lon="5.77862">
        <ele>529</ele>
        <time>2021-08-25T12:46:26Z</time>
      </trkpt>
      <trkpt lat="46.73238" lon="5.77859">
        <ele>529</ele>
        <time>2021-08-25T12:46:34Z</time>
      </trkpt>
      <trkpt lat="46.73227" lon="5.77862">
        <ele>527</ele>
        <time>2021-08-25T12:46:44Z</time>
      </trkpt>
      <trkpt lat="46.73214" lon="5.7786">
        <ele>526</ele>
        <time>2021-08-25T12:46:55Z</time>
      </trkpt>
      <trkpt lat="46.73207" lon="5.77862">
        <ele>527</ele>
        <time>2021-08-25T12:46:59Z</time>
      </trkpt>
      <trkpt lat="46.73201" lon="5.77864">
        <ele>526</ele>
        <time>2021-08-25T12:47:05Z</time>
      </trkpt>
      <trkpt lat="46.73188" lon="5.77867">
        <ele>526</ele>
        <time>2021-08-25T12:47:15Z</time>
      </trkpt>
      <trkpt lat="46.73177" lon="5.77871">
        <ele>525</ele>
        <time>2021-08-25T12:47:26Z</time>
      </trkpt>
      <trkpt lat="46.73172" lon="5.77871">
        <ele>524</ele>
        <time>2021-08-25T12:47:32Z</time>
      </trkpt>
      <trkpt lat="46.73158" lon="5.77868">
        <ele>522</ele>
        <time>2021-08-25T12:47:47Z</time>
      </trkpt>
      <trkpt lat="46.73144" lon="5.77876">
        <ele>521</ele>
        <time>2021-08-25T12:48:02Z</time>
      </trkpt>
      <trkpt lat="46.73139" lon="5.77876">
        <ele>520</ele>
        <time>2021-08-25T12:48:07Z</time>
      </trkpt>
      <trkpt lat="46.73122" lon="5.77879">
        <ele>518</ele>
        <time>2021-08-25T12:48:23Z</time>
      </trkpt>
      <trkpt lat="46.73082" lon="5.77876">
        <ele>515</ele>
        <time>2021-08-25T12:48:59Z</time>
      </trkpt>
      <trkpt lat="46.73049" lon="5.77883">
        <ele>511</ele>
        <time>2021-08-25T12:49:30Z</time>
      </trkpt>
      <trkpt lat="46.73036" lon="5.77879">
        <ele>510</ele>
        <time>2021-08-25T12:49:41Z</time>
      </trkpt>
      <trkpt lat="46.73001" lon="5.77881">
        <ele>506</ele>
        <time>2021-08-25T12:50:13Z</time>
      </trkpt>
      <trkpt lat="46.72995" lon="5.77885">
        <ele>506</ele>
        <time>2021-08-25T12:50:19Z</time>
      </trkpt>
      <trkpt lat="46.7298" lon="5.77884">
        <ele>504</ele>
        <time>2021-08-25T12:50:35Z</time>
      </trkpt>
      <trkpt lat="46.7297" lon="5.77884">
        <ele>504</ele>
        <time>2021-08-25T12:50:46Z</time>
      </trkpt>
      <trkpt lat="46.72964" lon="5.77884">
        <ele>504</ele>
        <time>2021-08-25T12:50:51Z</time>
      </trkpt>
      <trkpt lat="46.72933" lon="5.77894">
        <ele>500</ele>
        <time>2021-08-25T12:51:23Z</time>
      </trkpt>
      <trkpt lat="46.72921" lon="5.77898">
        <ele>499</ele>
        <time>2021-08-25T12:51:33Z</time>
      </trkpt>
      <trkpt lat="46.72916" lon="5.77902">
        <ele>499</ele>
        <time>2021-08-25T12:51:39Z</time>
      </trkpt>
      <trkpt lat="46.72911" lon="5.77903">
        <ele>498</ele>
        <time>2021-08-25T12:51:44Z</time>
      </trkpt>
      <trkpt lat="46.72905" lon="5.77902">
        <ele>497</ele>
        <time>2021-08-25T12:51:49Z</time>
      </trkpt>
      <trkpt lat="46.72899" lon="5.77903">
        <ele>497</ele>
        <time>2021-08-25T12:51:53Z</time>
      </trkpt>
      <trkpt lat="46.72882" lon="5.77907">
        <ele>495</ele>
        <time>2021-08-25T12:52:10Z</time>
      </trkpt>
      <trkpt lat="46.72869" lon="5.77916">
        <ele>494</ele>
        <time>2021-08-25T12:52:27Z</time>
      </trkpt>
      <trkpt lat="46.72831" lon="5.77929">
        <ele>492</ele>
        <time>2021-08-25T12:53:02Z</time>
      </trkpt>
      <trkpt lat="46.72805" lon="5.77963">
        <ele>490</ele>
        <time>2021-08-25T12:53:37Z</time>
      </trkpt>
      <trkpt lat="46.72796" lon="5.77979">
        <ele>490</ele>
        <time>2021-08-25T12:53:51Z</time>
      </trkpt>
      <trkpt lat="46.7279" lon="5.77988">
        <ele>489</ele>
        <time>2021-08-25T12:54:00Z</time>
      </trkpt>
      <trkpt lat="46.7279" lon="5.77996">
        <ele>488</ele>
        <time>2021-08-25T12:54:05Z</time>
      </trkpt>
      <trkpt lat="46.72795" lon="5.78001">
        <ele>488</ele>
        <time>2021-08-25T12:54:11Z</time>
      </trkpt>
      <trkpt lat="46.72802" lon="5.78">
        <ele>488</ele>
        <time>2021-08-25T12:54:19Z</time>
      </trkpt>
      <trkpt lat="46.72819" lon="5.78009">
        <ele>487</ele>
        <time>2021-08-25T12:54:35Z</time>
      </trkpt>
      <trkpt lat="46.72837" lon="5.78012">
        <ele>486</ele>
        <time>2021-08-25T12:54:49Z</time>
      </trkpt>
      <trkpt lat="46.72846" lon="5.78021">
        <ele>485</ele>
        <time>2021-08-25T12:55:00Z</time>
      </trkpt>
      <trkpt lat="46.72824" lon="5.78057">
        <ele>484</ele>
        <time>2021-08-25T12:55:33Z</time>
      </trkpt>
      <trkpt lat="46.72797" lon="5.78091">
        <ele>481</ele>
        <time>2021-08-25T12:56:03Z</time>
      </trkpt>
      <trkpt lat="46.72791" lon="5.78094">
        <ele>481</ele>
        <time>2021-08-25T12:56:09Z</time>
      </trkpt>
      <trkpt lat="46.72786" lon="5.78096">
        <ele>480</ele>
        <time>2021-08-25T12:56:15Z</time>
      </trkpt>
      <trkpt lat="46.72774" lon="5.78093">
        <ele>480</ele>
        <time>2021-08-25T12:56:25Z</time>
      </trkpt>
      <trkpt lat="46.72752" lon="5.78081">
        <ele>478</ele>
        <time>2021-08-25T12:56:45Z</time>
      </trkpt>
      <trkpt lat="46.72742" lon="5.78072">
        <ele>478</ele>
        <time>2021-08-25T12:56:54Z</time>
      </trkpt>
      <trkpt lat="46.72736" lon="5.78069">
        <ele>477</ele>
        <time>2021-08-25T12:56:59Z</time>
      </trkpt>
      <trkpt lat="46.72698" lon="5.78061">
        <ele>476</ele>
        <time>2021-08-25T12:57:30Z</time>
      </trkpt>
      <trkpt lat="46.7269" lon="5.78063">
        <ele>475</ele>
        <time>2021-08-25T12:57:36Z</time>
      </trkpt>
      <trkpt lat="46.72685" lon="5.78062">
        <ele>475</ele>
        <time>2021-08-25T12:57:42Z</time>
      </trkpt>
      <trkpt lat="46.7268" lon="5.78056">
        <ele>475</ele>
        <time>2021-08-25T12:57:47Z</time>
      </trkpt>
      <trkpt lat="46.72673" lon="5.7803">
        <ele>475</ele>
        <time>2021-08-25T12:58:05Z</time>
      </trkpt>
      <trkpt lat="46.72669" lon="5.78024">
        <ele>475</ele>
        <time>2021-08-25T12:58:10Z</time>
      </trkpt>
      <trkpt lat="46.72664" lon="5.7802">
        <ele>476</ele>
        <time>2021-08-25T12:58:14Z</time>
      </trkpt>
      <trkpt lat="46.72659" lon="5.78017">
        <ele>476</ele>
        <time>2021-08-25T12:58:19Z</time>
      </trkpt>
      <trkpt lat="46.72654" lon="5.78012">
        <ele>476</ele>
        <time>2021-08-25T12:58:25Z</time>
      </trkpt>
      <trkpt lat="46.72634" lon="5.77975">
        <ele>477</ele>
        <time>2021-08-25T12:58:55Z</time>
      </trkpt>
      <trkpt lat="46.72626" lon="5.77964">
        <ele>477</ele>
        <time>2021-08-25T12:59:05Z</time>
      </trkpt>
      <trkpt lat="46.72615" lon="5.77955">
        <ele>477</ele>
        <time>2021-08-25T12:59:15Z</time>
      </trkpt>
      <trkpt lat="46.72611" lon="5.77947">
        <ele>478</ele>
        <time>2021-08-25T12:59:20Z</time>
      </trkpt>
      <trkpt lat="46.72594" lon="5.77944">
        <ele>478</ele>
        <time>2021-08-25T12:59:38Z</time>
      </trkpt>
      <trkpt lat="46.72589" lon="5.7794">
        <ele>478</ele>
        <time>2021-08-25T12:59:43Z</time>
      </trkpt>
      <trkpt lat="46.72584" lon="5.77934">
        <ele>478</ele>
        <time>2021-08-25T12:59:47Z</time>
      </trkpt>
      <trkpt lat="46.72568" lon="5.7792">
        <ele>478</ele>
        <time>2021-08-25T13:00:02Z</time>
      </trkpt>
      <trkpt lat="46.72565" lon="5.77913">
        <ele>478</ele>
        <time>2021-08-25T13:00:06Z</time>
      </trkpt>
      <trkpt lat="46.72555" lon="5.77903">
        <ele>478</ele>
        <time>2021-08-25T13:00:16Z</time>
      </trkpt>
      <trkpt lat="46.72551" lon="5.77897">
        <ele>479</ele>
        <time>2021-08-25T13:00:21Z</time>
      </trkpt>
      <trkpt lat="46.72541" lon="5.77887">
        <ele>479</ele>
        <time>2021-08-25T13:00:32Z</time>
      </trkpt>
      <trkpt lat="46.72532" lon="5.77875">
        <ele>479</ele>
        <time>2021-08-25T13:00:42Z</time>
      </trkpt>
      <trkpt lat="46.72526" lon="5.77872">
        <ele>479</ele>
        <time>2021-08-25T13:00:46Z</time>
      </trkpt>
      <trkpt lat="46.72519" lon="5.77864">
        <ele>480</ele>
        <time>2021-08-25T13:00:57Z</time>
      </trkpt>
      <trkpt lat="46.72507" lon="5.77855">
        <ele>480</ele>
        <time>2021-08-25T13:01:13Z</time>
      </trkpt>
      <trkpt lat="46.72504" lon="5.77848">
        <ele>480</ele>
        <time>2021-08-25T13:01:18Z</time>
      </trkpt>
      <trkpt lat="46.72498" lon="5.77844">
        <ele>481</ele>
        <time>2021-08-25T13:01:24Z</time>
      </trkpt>
      <trkpt lat="46.72491" lon="5.77841">
        <ele>480</ele>
        <time>2021-08-25T13:01:31Z</time>
      </trkpt>
      <trkpt lat="46.72479" lon="5.77829">
        <ele>481</ele>
        <time>2021-08-25T13:01:44Z</time>
      </trkpt>
      <trkpt lat="46.72474" lon="5.77827">
        <ele>481</ele>
        <time>2021-08-25T13:01:50Z</time>
      </trkpt>
      <trkpt lat="46.7247" lon="5.77833">
        <ele>482</ele>
        <time>2021-08-25T13:02:01Z</time>
      </trkpt>
    </trkseg>
  </trk>
</gpx>